PORTS® Data Listing: 9414750 Alameda, CA

CO-OPS RAW PORTS DATA

************************      PRELIMINARY DATA      ************************** 

     THIS RAW DATA HAS NOT BEEN SUBJECT TO THE NATIONAL OCEAN SERVICE'S        
     QUALITY CONTROL OR QUALITY ASSURANCE PROCEDURES AND DOES NOT MEET         
     THE CRITERIA AND STANDARDS OF OFFICIAL NATIONAL OCEAN SERVICE             
     DATA.  IT IS RELEASED FOR LIMITED PUBLIC USE AS PRELIMINARY DATA TO       
     BE USED ONLY WITH APPROPRIATE CAUTION.                                    

************************      PRELIMINARY DATA      ************************** 


       CD   -   Calendar date
       T    -   Time
       TZ   -   Timezone
       PW   -   Predicted water level (feet above MLLW)
       OW   -   Observed water level (feet above MLLW)
       WS   -   Wind speed (knots)
       WD   -   Wind direction (degrees true)
       WG   -   Wind gust (knots)
       AT   -   Air temperature (degrees farenheit)
       WT   -   Water temperature (degrees farenheit)
       AP   -   Air pressure (millibars)
       SA   -   Salinty (PSU - Practical Salinity Units)
       SG   -   Specific gravity
       RH   -   Relative humidity
       AG   -   Air gap (feet)
       VI   -   Visibility (nautical miles)

       ** NOTE **
       A variable that has its data fields filled with "9"s, indicates that
       data was not collected for that sample period.
       **********


STATION NAME: Alameda (9414750)
****************************************************************************************************
    CD       T    TZ    PW     OW    WS   WD   WG    AT    WT    AP    SA    SG     RH    AG   VI
****************************************************************************************************
2019/12/10 19:12 PST    1.03   1.18    3  313    5  53.6  55.0 1023.8 -9.9 -9.999 -99.9 -99.99 -9.99
2019/12/10 19:18 PST    1.14   1.31    2  302    5  53.6  55.0 1023.7 -9.9 -9.999 -99.9 -99.99 -9.99
2019/12/10 19:24 PST    1.26   1.44    2  330    4  53.4  55.0 1023.7 -9.9 -9.999 -99.9 -99.99 -9.99
2019/12/10 19:30 PST    1.37   1.60    1  325    3  53.4  55.0 1023.6 -9.9 -9.999 -99.9 -99.99 -9.99
2019/12/10 19:36 PST    1.49   1.75    3  345    5  53.4  55.0 1023.6 -9.9 -9.999 -99.9 -99.99 -9.99
2019/12/10 19:42 PST    1.61   1.89    2  331    5  53.2  55.0 1023.8 -9.9 -9.999 -99.9 -99.99 -9.99
2019/12/10 19:48 PST    1.73   2.01    3  293    5  53.2  55.0 1024.0 -9.9 -9.999 -99.9 -99.99 -9.99
2019/12/10 19:54 PST    1.86   2.13    2  298    5  53.2  55.0 1023.9 -9.9 -9.999 -99.9 -99.99 -9.99
2019/12/10 20:00 PST    1.98   2.22    4   94    6  53.1  55.0 1023.2 -9.9 -9.999 -99.9 -99.99 -9.99
2019/12/10 20:06 PST    2.11   2.35    4  105    5  53.1  55.0 1023.3 -9.9 -9.999 -99.9 -99.99 -9.99
2019/12/10 20:12 PST    2.23   2.46    4  101    5  52.9  55.0 1023.3 -9.9 -9.999 -99.9 -99.99 -9.99
2019/12/10 20:18 PST    2.36   2.63    2   96    4  52.9  55.0 1023.5 -9.9 -9.999 -99.9 -99.99 -9.99
2019/12/10 20:24 PST    2.48   2.76    1  135    2  53.1  55.0 1023.7 -9.9 -9.999 -99.9 -99.99 -9.99
2019/12/10 20:30 PST    2.61   2.89    4  119    4  53.1  55.0 1023.7 -9.9 -9.999 -99.9 -99.99 -9.99
2019/12/10 20:36 PST    2.73   2.99    3  121    4  52.9  55.0 1023.9 -9.9 -9.999 -99.9 -99.99 -9.99
2019/12/10 20:42 PST    2.86   3.12    3  106    4  53.1  55.0 1023.8 -9.9 -9.999 -99.9 -99.99 -9.99
2019/12/10 20:48 PST    2.98   3.24    2  108    3  53.1  55.0 1023.9 -9.9 -9.999 -99.9 -99.99 -9.99
2019/12/10 20:54 PST    3.10   3.33    4   90    5  53.1  55.0 1023.4 -9.9 -9.999 -99.9 -99.99 -9.99
2019/12/10 21:00 PST    3.22   3.42    4  107    5  53.1  55.0 1023.6 -9.9 -9.999 -99.9 -99.99 -9.99
2019/12/10 21:06 PST    3.34   3.59    5  104    6  53.1  55.0 1023.6 -9.9 -9.999 -99.9 -99.99 -9.99
2019/12/10 21:12 PST    3.46   3.73    4   98    6  53.1  55.0 1023.1 -9.9 -9.999 -99.9 -99.99 -9.99
2019/12/10 21:18 PST    3.58   3.83    2  103    6  53.1  55.0 1023.4 -9.9 -9.999 -99.9 -99.99 -9.99
2019/12/10 21:24 PST    3.69   3.97    4  109    6  52.9  55.0 1023.2 -9.9 -9.999 -99.9 -99.99 -9.99
2019/12/10 21:30 PST    3.80   4.09    4  107    6  53.1  55.0 1023.3 -9.9 -9.999 -99.9 -99.99 -9.99
2019/12/10 21:36 PST    3.91   4.19    3  107    5  52.9  55.0 1023.4 -9.9 -9.999 -99.9 -99.99 -9.99
2019/12/10 21:42 PST    4.02   4.29    4  102    5  52.9  55.0 1023.6 -9.9 -9.999 -99.9 -99.99 -9.99
2019/12/10 21:48 PST    4.12   4.43    2   86    4  52.9  55.0 1023.6 -9.9 -9.999 -99.9 -99.99 -9.99
2019/12/10 21:54 PST    4.22   4.52    1   86    3  52.9  55.0 1023.7 -9.9 -9.999 -99.9 -99.99 -9.99
2019/12/10 22:00 PST    4.32   4.59    0  123    2  53.1  55.0 1023.9 -9.9 -9.999 -99.9 -99.99 -9.99
2019/12/10 22:06 PST    4.42   4.67    1   18    2  53.1  55.0 1024.0 -9.9 -9.999 -99.9 -99.99 -9.99
2019/12/10 22:12 PST    4.51   4.74    0   15    2  53.2  55.0 1024.0 -9.9 -9.999 -99.9 -99.99 -9.99
2019/12/10 22:18 PST    4.59   4.85    0   51    3  53.2  55.0 1023.9 -9.9 -9.999 -99.9 -99.99 -9.99
2019/12/10 22:24 PST    4.68   4.93    1  116    2  53.1  55.0 1023.9 -9.9 -9.999 -99.9 -99.99 -9.99
2019/12/10 22:30 PST    4.75   4.98    1  129    2  53.1  55.0 1024.0 -9.9 -9.999 -99.9 -99.99 -9.99
2019/12/10 22:36 PST    4.83   5.04    0  137    2  53.2  55.0 1024.0 -9.9 -9.999 -99.9 -99.99 -9.99
2019/12/10 22:42 PST    4.90   5.11    0  133    1  53.2  55.0 1024.1 -9.9 -9.999 -99.9 -99.99 -9.99
2019/12/10 22:48 PST    4.96   5.18    0  352    1  53.1  55.0 1024.1 -9.9 -9.999 -99.9 -99.99 -9.99
2019/12/10 22:54 PST    5.02   5.24    0   11    1  53.2  55.0 1024.1 -9.9 -9.999 -99.9 -99.99 -9.99
2019/12/10 23:00 PST    5.07   5.31    0  107    1  53.2  55.0 1024.1 -9.9 -9.999 -99.9 -99.99 -9.99
2019/12/10 23:06 PST    5.12   5.37    1  128    1  53.4  55.0 1024.1 -9.9 -9.999 -99.9 -99.99 -9.99
2019/12/10 23:12 PST    5.16   5.39    0  209    0  53.4  55.0 1024.2 -9.9 -9.999 -99.9 -99.99 -9.99
2019/12/10 23:18 PST    5.19   5.42    1  112    2  53.4  55.0 1024.2 -9.9 -9.999 -99.9 -99.99 -9.99
2019/12/10 23:24 PST    5.22   5.46    1  114    2  53.4  55.0 1024.2 -9.9 -9.999 -99.9 -99.99 -9.99
2019/12/10 23:30 PST    5.24   5.50    2   99    2  53.6  55.0 1024.1 -9.9 -9.999 -99.9 -99.99 -9.99
2019/12/10 23:36 PST    5.26   5.56    2   94    2  53.6  55.0 1024.0 -9.9 -9.999 -99.9 -99.99 -9.99
2019/12/10 23:42 PST    5.27   5.57    2   83    2  53.4  55.0 1024.1 -9.9 -9.999 -99.9 -99.99 -9.99
2019/12/10 23:48 PST    5.27   5.52    0  106    2  53.6  55.0 1024.2 -9.9 -9.999 -99.9 -99.99 -9.99
2019/12/10 23:54 PST    5.26   5.48    1   82    1  53.8  55.0 1024.3 -9.9 -9.999 -99.9 -99.99 -9.99
2019/12/11 00:00 PST    5.25   5.49    1   96    1  53.6  55.0 1024.2 -9.9 -9.999 -99.9 -99.99 -9.99
2019/12/11 00:06 PST    5.24   5.51    2   90    2  53.6  55.0 1024.1 -9.9 -9.999 -99.9 -99.99 -9.99
2019/12/11 00:12 PST    5.22   5.49    1   91    2  53.6  55.0 1024.1 -9.9 -9.999 -99.9 -99.99 -9.99
2019/12/11 00:18 PST    5.19   5.46    1   83    2  53.6  55.0 1024.2 -9.9 -9.999 -99.9 -99.99 -9.99
2019/12/11 00:24 PST    5.15   5.43    1  114    1  53.6  55.0 1024.1 -9.9 -9.999 -99.9 -99.99 -9.99
2019/12/11 00:30 PST    5.11   5.37    2   96    2  53.6  55.0 1024.0 -9.9 -9.999 -99.9 -99.99 -9.99
2019/12/11 00:36 PST    5.07   5.30    2   92    3  53.6  55.0 1024.1 -9.9 -9.999 -99.9 -99.99 -9.99
2019/12/11 00:42 PST    5.02   5.25    2   93    3  53.8  55.0 1023.9 -9.9 -9.999 -99.9 -99.99 -9.99
2019/12/11 00:48 PST    4.96   5.20    2   97    3  53.8  55.0 1023.9 -9.9 -9.999 -99.9 -99.99 -9.99
2019/12/11 00:54 PST    4.91   5.14    2  106    3  54.0  55.0 1023.9 -9.9 -9.999 -99.9 -99.99 -9.99
2019/12/11 01:00 PST    4.84   5.09    2   98    3  53.8  55.0 1023.9 -9.9 -9.999 -99.9 -99.99 -9.99
2019/12/11 01:06 PST    4.78   5.06    3  103    4  53.8  55.0 1023.6 -9.9 -9.999 -99.9 -99.99 -9.99
2019/12/11 01:12 PST    4.71   4.97    4  103    5  53.8  55.0 1023.3 -9.9 -9.999 -99.9 -99.99 -9.99
2019/12/11 01:18 PST    4.63   4.87    6  103    7  54.0  55.0 1023.2 -9.9 -9.999 -99.9 -99.99 -9.99
2019/12/11 01:24 PST    4.56   4.78    5  108    7  54.1  55.0 1023.2 -9.9 -9.999 -99.9 -99.99 -9.99
2019/12/11 01:30 PST    4.48   4.71    5  101    7  54.0  55.0 1023.1 -9.9 -9.999 -99.9 -99.99 -9.99
2019/12/11 01:36 PST    4.40   4.65    5  113    7  54.1  55.0 1023.2 -9.9 -9.999 -99.9 -99.99 -9.99
2019/12/11 01:42 PST    4.32   4.57    7  111    8  54.3  55.0 1023.1 -9.9 -9.999 -99.9 -99.99 -9.99
2019/12/11 01:48 PST    4.24   4.47    6  112    9  54.3  55.0 1023.1 -9.9 -9.999 -99.9 -99.99 -9.99
2019/12/11 01:54 PST    4.15   4.39    6  113    8  54.1  55.0 1023.2 -9.9 -9.999 -99.9 -99.99 -9.99
2019/12/11 02:00 PST    4.07   4.29    6  118    9  54.3  55.0 1023.3 -9.9 -9.999 -99.9 -99.99 -9.99
2019/12/11 02:06 PST    3.99   4.19    5  116    8  54.3  55.0 1023.3 -9.9 -9.999 -99.9 -99.99 -9.99
2019/12/11 02:12 PST    3.91   4.11    6  116    7  54.3  55.0 1023.2 -9.9 -9.999 -99.9 -99.99 -9.99
2019/12/11 02:18 PST    3.82   3.99    7  115    9  54.5  55.0 1023.2 -9.9 -9.999 -99.9 -99.99 -9.99
2019/12/11 02:24 PST    3.74   3.87    7  111    9  54.5  55.0 1023.1 -9.9 -9.999 -99.9 -99.99 -9.99
2019/12/11 02:30 PST    3.66   3.82    6  114    8  54.5  55.0 1023.2 -9.9 -9.999 -99.9 -99.99 -9.99
2019/12/11 02:36 PST    3.59   3.74    6  113    8  54.5  55.0 1023.1 -9.9 -9.999 -99.9 -99.99 -9.99
2019/12/11 02:42 PST    3.51   3.64    5  121    8  54.5  55.0 1023.2 -9.9 -9.999 -99.9 -99.99 -9.99
2019/12/11 02:48 PST    3.44   3.55    5  120    6  54.5  55.0 1023.2 -9.9 -9.999 -99.9 -99.99 -9.99
2019/12/11 02:54 PST    3.37   3.45    4  117    6  54.5  55.0 1023.2 -9.9 -9.999 -99.9 -99.99 -9.99
2019/12/11 03:00 PST    3.30   3.35    5  112    6  54.3  55.0 1023.2 -9.9 -9.999 -99.9 -99.99 -9.99
2019/12/11 03:06 PST    3.23   3.29    4  111    6  54.3  55.0 1023.2 -9.9 -9.999 -99.9 -99.99 -9.99
2019/12/11 03:12 PST    3.17   3.27    4  109    5  54.3  55.0 1023.3 -9.9 -9.999 -99.9 -99.99 -9.99
2019/12/11 03:18 PST    3.11   3.24    4  111    5  54.3  55.0 1023.3 -9.9 -9.999 -99.9 -99.99 -9.99
2019/12/11 03:24 PST    3.05   3.17    4  117    4  54.3  55.0 1023.4 -9.9 -9.999 -99.9 -99.99 -9.99
2019/12/11 03:30 PST    3.00   3.10    4  112    5  54.3  55.0 1023.2 -9.9 -9.999 -99.9 -99.99 -9.99
2019/12/11 03:36 PST    2.95   3.03    4  106    5  54.1  55.0 1023.2 -9.9 -9.999 -99.9 -99.99 -9.99
2019/12/11 03:42 PST    2.91   2.97    3  108    5  54.3  55.0 1023.1 -9.9 -9.999 -99.9 -99.99 -9.99
2019/12/11 03:48 PST    2.87   2.94    3   92    4  54.0  55.0 1023.0 -9.9 -9.999 -99.9 -99.99 -9.99
2019/12/11 03:54 PST    2.83   2.94    4   98    5  54.0  55.0 1022.8 -9.9 -9.999 -99.9 -99.99 -9.99
2019/12/11 04:00 PST    2.79   2.93    4  100    5  54.0  55.0 1022.8 -9.9 -9.999 -99.9 -99.99 -9.99
2019/12/11 04:06 PST    2.77   2.90    5  102    6  54.0  55.0 1022.7 -9.9 -9.999 -99.9 -99.99 -9.99
2019/12/11 04:12 PST    2.74   2.88    4   99    6  54.0  55.0 1022.7 -9.9 -9.999 -99.9 -99.99 -9.99
2019/12/11 04:18 PST    2.72   2.84    4  101    6  54.0  55.0 1022.6 -9.9 -9.999 -99.9 -99.99 -9.99
2019/12/11 04:24 PST    2.71   2.80    5  106    6  54.1  55.0 1022.7 -9.9 -9.999 -99.9 -99.99 -9.99
2019/12/11 04:30 PST    2.70   2.79    4  102    6  54.1  55.0 1022.7 -9.9 -9.999 -99.9 -99.99 -9.99
2019/12/11 04:36 PST    2.69   2.80    4  107    6  54.3  55.0 1022.7 -9.9 -9.999 -99.9 -99.99 -9.99
2019/12/11 04:42 PST    2.69   2.85    5  110    6  54.3  55.0 1022.8 -9.9 -9.999 -99.9 -99.99 -9.99
2019/12/11 04:48 PST    2.70   2.89    6  112    7  54.5  55.0 1022.8 -9.9 -9.999 -99.9 -99.99 -9.99
2019/12/11 04:54 PST    2.71   2.91    5  108    8  54.5  55.0 1022.9 -9.9 -9.999 -99.9 -99.99 -9.99
2019/12/11 05:00 PST    2.72   2.93    5  108    8  54.3  55.0 1023.0 -9.9 -9.999 -99.9 -99.99 -9.99
2019/12/11 05:06 PST    2.74   2.94    6  106    7  54.1  55.0 1023.0 -9.9 -9.999 -99.9 -99.99 -9.99
2019/12/11 05:12 PST    2.77   2.97    5  103    7  54.0  55.0 1023.1 -9.9 -9.999 -99.9 -99.99 -9.99
2019/12/11 05:18 PST    2.80   3.04 -999 -999 -999 -99.9  55.0 -999.9 -9.9 -9.999 -99.9 -99.99 -9.99
2019/12/11 05:24 PST    2.84   3.09    5  110    6  53.6  55.0 1023.1 -9.9 -9.999 -99.9 -99.99 -9.99
2019/12/11 05:30 PST    2.88   3.14    4  114    6  53.6  55.0 1023.2 -9.9 -9.999 -99.9 -99.99 -9.99
2019/12/11 05:36 PST    2.93   3.20    4  109    6  53.6  55.0 1023.1 -9.9 -9.999 -99.9 -99.99 -9.99
2019/12/11 05:42 PST    2.98   3.27    5  101    6  53.4  55.0 1023.1 -9.9 -9.999 -99.9 -99.99 -9.99
2019/12/11 05:48 PST    3.04   3.31    5  107    7  53.4  55.0 1023.1 -9.9 -9.999 -99.9 -99.99 -9.99
2019/12/11 05:54 PST    3.10   3.35    9  111   11  53.1  55.0 1023.0 -9.9 -9.999 -99.9 -99.99 -9.99
2019/12/11 06:00 PST    3.17   3.43    8  113   11  53.1  54.9 1022.9 -9.9 -9.999 -99.9 -99.99 -9.99
2019/12/11 06:06 PST    3.24   3.53    5  105   11  53.1  54.9 1023.1 -9.9 -9.999 -99.9 -99.99 -9.99
2019/12/11 06:12 PST    3.32   3.64    5  107    8  52.9  54.9 1023.3 -9.9 -9.999 -99.9 -99.99 -9.99
2019/12/11 06:18 PST    3.40   3.75    6  109    8  52.9  54.9 1023.2 -9.9 -9.999 -99.9 -99.99 -9.99
2019/12/11 06:24 PST    3.49   3.83    6  107    9  53.1  54.9 1023.2 -9.9 -9.999 -99.9 -99.99 -9.99
2019/12/11 06:30 PST    3.58   3.90    4  106    7  53.1  54.9 1023.3 -9.9 -9.999 -99.9 -99.99 -9.99
2019/12/11 06:36 PST    3.67   3.99    4  109    6  53.1  54.9 1023.4 -9.9 -9.999 -99.9 -99.99 -9.99
2019/12/11 06:42 PST    3.77   4.11    4  106    5  53.1  54.9 1023.4 -9.9 -9.999 -99.9 -99.99 -9.99
2019/12/11 06:48 PST    3.87   4.25    5  114    6  53.1  54.9 1023.3 -9.9 -9.999 -99.9 -99.99 -9.99
2019/12/11 06:54 PST    3.98   4.36    5  114    7  53.2  54.9 1023.3 -9.9 -9.999 -99.9 -99.99 -9.99
2019/12/11 07:00 PST    4.08   4.47    8  117   10  53.4  54.9 1023.3 -9.9 -9.999 -99.9 -99.99 -9.99
2019/12/11 07:06 PST    4.19   4.55    8  122   10  53.6  54.9 1023.1 -9.9 -9.999 -99.9 -99.99 -9.99
2019/12/11 07:12 PST    4.30   4.66    7  114   10  53.8  54.9 1023.0 -9.9 -9.999 -99.9 -99.99 -9.99
2019/12/11 07:18 PST    4.42   4.78    7  108    9  53.8  54.9 1023.0 -9.9 -9.999 -99.9 -99.99 -9.99
2019/12/11 07:24 PST    4.53   4.90    5  105   10  54.0  54.9 1023.0 -9.9 -9.999 -99.9 -99.99 -9.99
2019/12/11 07:30 PST    4.65   5.03    6  105    8  54.1  54.9 1023.1 -9.9 -9.999 -99.9 -99.99 -9.99
2019/12/11 07:36 PST    4.76   5.13    4  108    7  54.3  54.9 1023.2 -9.9 -9.999 -99.9 -99.99 -9.99
2019/12/11 07:42 PST    4.88   5.22    8  113   10  55.0  54.9 1023.2 -9.9 -9.999 -99.9 -99.99 -9.99
2019/12/11 07:48 PST    5.00   5.36    7  111    9  55.0  54.9 1023.2 -9.9 -9.999 -99.9 -99.99 -9.99
2019/12/11 07:54 PST    5.11   5.51    7  117    8  55.0  54.9 1023.2 -9.9 -9.999 -99.9 -99.99 -9.99
2019/12/11 08:00 PST    5.23   5.64    8  116    9  55.0  54.9 1023.1 -9.9 -9.999 -99.9 -99.99 -9.99
2019/12/11 08:06 PST    5.34   5.74    7  115    9  55.0  54.9 1023.1 -9.9 -9.999 -99.9 -99.99 -9.99
2019/12/11 08:12 PST    5.45   5.87    7  116    8  54.9  54.9 1023.1 -9.9 -9.999 -99.9 -99.99 -9.99
2019/12/11 08:18 PST    5.56   5.99    6  114    8  54.9  54.9 1023.2 -9.9 -9.999 -99.9 -99.99 -9.99
2019/12/11 08:24 PST    5.67   6.10    6  114    7  54.9  54.9 1023.2 -9.9 -9.999 -99.9 -99.99 -9.99
2019/12/11 08:30 PST    5.78   6.19    5  111    7  55.0  54.9 1023.3 -9.9 -9.999 -99.9 -99.99 -9.99
2019/12/11 08:36 PST    5.88   6.27    4  112    6  55.0  54.9 1023.3 -9.9 -9.999 -99.9 -99.99 -9.99
2019/12/11 08:42 PST    5.98   6.40    5  111    7  55.0  54.9 1023.3 -9.9 -9.999 -99.9 -99.99 -9.99
2019/12/11 08:48 PST    6.08   6.53    4  112    6  55.0  54.9 1023.3 -9.9 -9.999 -99.9 -99.99 -9.99
2019/12/11 08:54 PST    6.17   6.62    5  113    6  55.2  54.9 1023.3 -9.9 -9.999 -99.9 -99.99 -9.99
2019/12/11 09:00 PST    6.26   6.70    4  113    5  55.2  54.9 1023.4 -9.9 -9.999 -99.9 -99.99 -9.99
2019/12/11 09:06 PST    6.35   6.79    4  110    6  55.4  54.9 1023.5 -9.9 -9.999 -99.9 -99.99 -9.99
2019/12/11 09:12 PST    6.43   6.90    4  118    4  55.4  54.9 1023.6 -9.9 -9.999 -99.9 -99.99 -9.99
2019/12/11 09:18 PST    6.51   6.96    3  115    4  55.4  54.9 1023.7 -9.9 -9.999 -99.9 -99.99 -9.99
2019/12/11 09:24 PST    6.58   7.03    3  118    3  55.4  54.9 1023.7 -9.9 -9.999 -99.9 -99.99 -9.99
2019/12/11 09:30 PST    6.65   7.13    2  116    3  55.4  54.9 1023.8 -9.9 -9.999 -99.9 -99.99 -9.99
2019/12/11 09:36 PST    6.71   7.22    1  120    2  55.6  54.9 1023.8 -9.9 -9.999 -99.9 -99.99 -9.99
2019/12/11 09:42 PST    6.77   7.25    1  101    2  55.6  54.9 1023.9 -9.9 -9.999 -99.9 -99.99 -9.99
2019/12/11 09:48 PST    6.82   7.28    2  106    2  55.6  54.9 1023.8 -9.9 -9.999 -99.9 -99.99 -9.99
2019/12/11 09:54 PST    6.87   7.34    3  101    3  55.8  54.9 1023.7 -9.9 -9.999 -99.9 -99.99 -9.99
2019/12/11 10:00 PST    6.91   7.40    2  107    3  56.1  54.9 1023.8 -9.9 -9.999 -99.9 -99.99 -9.99
2019/12/11 10:06 PST    6.94   7.46    2  104    3  56.1  54.9 1023.8 -9.9 -9.999 -99.9 -99.99 -9.99
2019/12/11 10:12 PST    6.97   7.54    2  111    3  56.3  54.9 1023.8 -9.9 -9.999 -99.9 -99.99 -9.99
2019/12/11 10:18 PST    6.99   7.58    2  119    2  56.3  54.9 1023.8 -9.9 -9.999 -99.9 -99.99 -9.99
2019/12/11 10:24 PST    7.01   7.55    1  124    2  56.3  54.9 1023.8 -9.9 -9.999 -99.9 -99.99 -9.99
2019/12/11 10:30 PST    7.02   7.53    1  145    2  56.3  54.9 1023.9 -9.9 -9.999 -99.9 -99.99 -9.99
2019/12/11 10:36 PST    7.02   7.56    1  131    2  56.3  54.9 1023.9 -9.9 -9.999 -99.9 -99.99 -9.99
2019/12/11 10:42 PST    7.02   7.59    0  213    1  56.5  54.9 1024.0 -9.9 -9.999 -99.9 -99.99 -9.99
2019/12/11 10:48 PST    7.01   7.56    0  274    1  56.7  54.9 1023.8 -9.9 -9.999 -99.9 -99.99 -9.99
2019/12/11 10:54 PST    6.99   7.51    0  290    0  57.0  54.9 1023.9 -9.9 -9.999 -99.9 -99.99 -9.99
2019/12/11 11:00 PST    6.96   7.50    1   77    1  56.8  54.9 1023.9 -9.9 -9.999 -99.9 -99.99 -9.99
2019/12/11 11:06 PST    6.93   7.46    0  102    1  57.2  54.9 1023.9 -9.9 -9.999 -99.9 -99.99 -9.99
2019/12/11 11:12 PST    6.89   7.37    2  275    2  57.0  54.9 1024.1 -9.9 -9.999 -99.9 -99.99 -9.99
2019/12/11 11:18 PST    6.84   7.29    2  284    2  56.8  54.9 1024.0 -9.9 -9.999 -99.9 -99.99 -9.99
2019/12/11 11:24 PST    6.79   7.24    2  279    2  56.8  54.9 1024.0 -9.9 -9.999 -99.9 -99.99 -9.99
2019/12/11 11:30 PST    6.73   7.19    2  282    3  56.8  54.9 1023.9 -9.9 -9.999 -99.9 -99.99 -9.99
2019/12/11 11:36 PST    6.66   7.09    3  318    4  56.3  54.9 1023.9 -9.9 -9.999 -99.9 -99.99 -9.99
2019/12/11 11:42 PST    6.58   6.99    3  310    6  55.6  54.9 1023.9 -9.9 -9.999 -99.9 -99.99 -9.99
2019/12/11 11:48 PST    6.49   6.86    3  311    5  55.0  54.9 1023.8 -9.9 -9.999 -99.9 -99.99 -9.99
2019/12/11 11:54 PST    6.40   6.72    3  327    4  54.9  54.9 1023.6 -9.9 -9.999 -99.9 -99.99 -9.99
2019/12/11 12:00 PST    6.30   6.58    2  337    4  55.2  54.9 1023.6 -9.9 -9.999 -99.9 -99.99 -9.99
2019/12/11 12:06 PST    6.19   6.49    4   14    5  54.9  54.9 1023.5 -9.9 -9.999 -99.9 -99.99 -9.99
2019/12/11 12:12 PST    6.08   6.36    4    6    5  54.9  54.9 1023.4 -9.9 -9.999 -99.9 -99.99 -9.99
2019/12/11 12:18 PST    5.96   6.22    2   14    5  55.0  54.9 1023.3 -9.9 -9.999 -99.9 -99.99 -9.99
2019/12/11 12:24 PST    5.83   6.08    3  344    4  55.2  54.9 1023.3 -9.9 -9.999 -99.9 -99.99 -9.99
2019/12/11 12:30 PST    5.70   5.91    4  343    5  55.0  54.9 1023.2 -9.9 -9.999 -99.9 -99.99 -9.99
2019/12/11 12:36 PST    5.56   5.76    3  341    6  55.0  54.9 1023.1 -9.9 -9.999 -99.9 -99.99 -9.99
2019/12/11 12:42 PST    5.41   5.57    2   10    4  55.0  54.9 1022.9 -9.9 -9.999 -99.9 -99.99 -9.99
2019/12/11 12:48 PST    5.26   5.41    3  356    4  55.2  54.9 1023.0 -9.9 -9.999 -99.9 -99.99 -9.99
2019/12/11 12:54 PST    5.10   5.25    4    3    4  55.2  54.9 1022.9 -9.9 -9.999 -99.9 -99.99 -9.99
2019/12/11 13:00 PST    4.94   5.08    3   19    4  55.4  54.9 1022.6 -9.9 -9.999 -99.9 -99.99 -9.99
2019/12/11 13:06 PST    4.78   4.90    1  132    4  55.6  54.9 1022.3 -9.9 -9.999 -99.9 -99.99 -9.99
2019/12/11 13:12 PST    4.61   4.72    0  243    2  55.9  54.9 1022.4 -9.9 -9.999 -99.9 -99.99 -9.99
2019/12/11 13:18 PST    4.44   4.51    1    8    3  56.5  54.9 1022.3 -9.9 -9.999 -99.9 -99.99 -9.99
2019/12/11 13:24 PST    4.26   4.35    1  112    2  56.5  54.9 1022.1 -9.9 -9.999 -99.9 -99.99 -9.99
2019/12/11 13:30 PST    4.09   4.22    2   91    3  56.8  54.9 1022.1 -9.9 -9.999 -99.9 -99.99 -9.99
2019/12/11 13:36 PST    3.91   4.06    2  102    3  57.0  54.9 1022.0 -9.9 -9.999 -99.9 -99.99 -9.99
2019/12/11 13:42 PST    3.73   3.87    1  102    2  57.4  54.9 1022.0 -9.9 -9.999 -99.9 -99.99 -9.99
2019/12/11 13:48 PST    3.55   3.68    1  107    2  57.6  54.9 1022.0 -9.9 -9.999 -99.9 -99.99 -9.99
2019/12/11 13:54 PST    3.36   3.49    2  270    2  57.2  54.9 1022.1 -9.9 -9.999 -99.9 -99.99 -9.99
2019/12/11 14:00 PST    3.18   3.31    2  266    2  57.2  54.9 1022.1 -9.9 -9.999 -99.9 -99.99 -9.99
2019/12/11 14:06 PST    3.00   3.13    4  286    4  56.7  54.9 1022.2 -9.9 -9.999 -99.9 -99.99 -9.99
2019/12/11 14:12 PST    2.82   2.97    4  288    5  55.9  54.9 1022.4 -9.9 -9.999 -99.9 -99.99 -9.99
2019/12/11 14:18 PST    2.64   2.84    4  291    5  55.8  54.9 1022.4 -9.9 -9.999 -99.9 -99.99 -9.99
2019/12/11 14:24 PST    2.47   2.68    4  289    5  55.4  54.9 1022.4 -9.9 -9.999 -99.9 -99.99 -9.99
2019/12/11 14:30 PST    2.29   2.50    2  327    4  55.4  54.9 1022.2 -9.9 -9.999 -99.9 -99.99 -9.99
2019/12/11 14:36 PST    2.12   2.33    2  331    3  55.4  54.9 1022.2 -9.9 -9.999 -99.9 -99.99 -9.99
2019/12/11 14:42 PST    1.95   2.18    2  327    3  55.6  54.9 1022.1 -9.9 -9.999 -99.9 -99.99 -9.99
2019/12/11 14:48 PST    1.79   2.02    3  323    3  55.8  54.9 1022.2 -9.9 -9.999 -99.9 -99.99 -9.99
2019/12/11 14:54 PST    1.63   1.86    3  335    4  55.8  54.9 1022.2 -9.9 -9.999 -99.9 -99.99 -9.99
2019/12/11 15:00 PST    1.47   1.71    3  324    4  55.8  55.0 1022.3 -9.9 -9.999 -99.9 -99.99 -9.99
2019/12/11 15:06 PST    1.32   1.57    3  337    4  55.9  55.0 1022.2 -9.9 -9.999 -99.9 -99.99 -9.99
2019/12/11 15:12 PST    1.17   1.44    4  355    5  55.8  55.0 1022.1 -9.9 -9.999 -99.9 -99.99 -9.99
2019/12/11 15:18 PST    1.03   1.30    4  347    5  55.6  55.0 1022.2 -9.9 -9.999 -99.9 -99.99 -9.99
2019/12/11 15:24 PST    0.89   1.17    3  357    4  55.8  55.0 1022.2 -9.9 -9.999 -99.9 -99.99 -9.99
2019/12/11 15:30 PST    0.76   1.03    4    1    5  55.6  55.0 1022.2 -9.9 -9.999 -99.9 -99.99 -9.99
2019/12/11 15:36 PST    0.63   0.92    4    1    5  55.8  55.0 1022.3 -9.9 -9.999 -99.9 -99.99 -9.99
2019/12/11 15:42 PST    0.51   0.78    4   12    5  55.8  55.0 1022.3 -9.9 -9.999 -99.9 -99.99 -9.99
2019/12/11 15:48 PST    0.39   0.66    3   14    5  55.8  55.0 1022.3 -9.9 -9.999 -99.9 -99.99 -9.99
2019/12/11 15:54 PST    0.28   0.55    2    8    4  55.8  55.0 1022.2 -9.9 -9.999 -99.9 -99.99 -9.99
2019/12/11 16:00 PST    0.18   0.49    3  338    4  55.8  55.0 1022.4 -9.9 -9.999 -99.9 -99.99 -9.99
2019/12/11 16:06 PST    0.08   0.38    3  339    4  55.8  55.0 1022.4 -9.9 -9.999 -99.9 -99.99 -9.99
2019/12/11 16:12 PST   -0.02   0.25    2  333    4  55.9  55.0 1022.2 -9.9 -9.999 -99.9 -99.99 -9.99
2019/12/11 16:18 PST   -0.10   0.13    2  346    3  55.9  55.0 1022.1 -9.9 -9.999 -99.9 -99.99 -9.99
2019/12/11 16:24 PST   -0.18   0.06    3  340    4  55.8  55.0 1022.1 -9.9 -9.999 -99.9 -99.99 -9.99
2019/12/11 16:30 PST   -0.26  -0.04    2  338    3  55.8  55.0 1022.1 -9.9 -9.999 -99.9 -99.99 -9.99
2019/12/11 16:36 PST   -0.33  -0.14    3  334    4  55.8  55.0 1022.2 -9.9 -9.999 -99.9 -99.99 -9.99
2019/12/11 16:42 PST   -0.39  -0.18    3  309    4  55.8  55.0 1022.4 -9.9 -9.999 -99.9 -99.99 -9.99
2019/12/11 16:48 PST   -0.45  -0.20    3  320    4  55.6  55.0 1022.4 -9.9 -9.999 -99.9 -99.99 -9.99
2019/12/11 16:54 PST   -0.49  -0.25    3  348    4  55.6  55.0 1022.3 -9.9 -9.999 -99.9 -99.99 -9.99
2019/12/11 17:00 PST   -0.54  -0.35    2  334    5  55.6  55.0 1022.0 -9.9 -9.999 -99.9 -99.99 -9.99
2019/12/11 17:06 PST   -0.57  -0.41    2  180    2  55.6  55.0 1021.9 -9.9 -9.999 -99.9 -99.99 -9.99
2019/12/11 17:12 PST   -0.60  -0.45    1   96    2  55.6  55.0 1021.7 -9.9 -9.999 -99.9 -99.99 -9.99
2019/12/11 17:18 PST   -0.63  -0.45    0   99    2  55.8  55.0 1021.8 -9.9 -9.999 -99.9 -99.99 -9.99
2019/12/11 17:24 PST   -0.65  -0.50    1   99    1  55.8  55.0 1021.7 -9.9 -9.999 -99.9 -99.99 -9.99
2019/12/11 17:30 PST   -0.66  -0.53    1  344    1  55.9  55.0 1021.8 -9.9 -9.999 -99.9 -99.99 -9.99
2019/12/11 17:36 PST   -0.66  -0.54    1  350    2  56.1  55.0 1021.9 -9.9 -9.999 -99.9 -99.99 -9.99
2019/12/11 17:42 PST   -0.66  -0.54    1  349    2  55.9  55.0 1021.8 -9.9 -9.999 -99.9 -99.99 -9.99
2019/12/11 17:48 PST   -0.65  -0.54    1   26    2  56.1  55.0 1021.7 -9.9 -9.999 -99.9 -99.99 -9.99
2019/12/11 17:54 PST   -0.63  -0.52    1   70    2  56.3  55.0 1021.5 -9.9 -9.999 -99.9 -99.99 -9.99
2019/12/11 18:00 PST   -0.61  -0.48    2   87    2  56.5  55.0 1021.6 -9.9 -9.999 -99.9 -99.99 -9.99
2019/12/11 18:06 PST   -0.58  -0.48    0  320    2  56.5  55.0 1021.7 -9.9 -9.999 -99.9 -99.99 -9.99
2019/12/11 18:12 PST   -0.55  -0.49    2  247    3  56.1  55.0 1021.7 -9.9 -9.999 -99.9 -99.99 -9.99
2019/12/11 18:18 PST   -0.51  -0.47    3  240    4  55.8  55.0 1021.7 -9.9 -9.999 -99.9 -99.99 -9.99
2019/12/11 18:24 PST   -0.46  -0.41    1  260    3  55.8  55.0 1021.7 -9.9 -9.999 -99.9 -99.99 -9.99
2019/12/11 18:30 PST   -0.41  -0.36    1  233    2  55.9  55.0 1021.7 -9.9 -9.999 -99.9 -99.99 -9.99
2019/12/11 18:36 PST   -0.35  -0.32    2  114    3  56.1  55.0 1021.5 -9.9 -9.999 -99.9 -99.99 -9.99
2019/12/11 18:42 PST   -0.28  -0.24    3   94    3  56.1  55.0 1021.4 -9.9 -9.999 -99.9 -99.99 -9.99
2019/12/11 18:48 PST   -0.21  -0.14    2  122    3  56.3  55.0 1021.5 -9.9 -9.999 -99.9 -99.99 -9.99
2019/12/11 18:54 PST   -0.14  -0.06    2  130    2  56.5  55.0 1021.6 -9.9 -9.999 -99.9 -99.99 -9.99
2019/12/11 19:00 PST   -0.05  -0.01    3  120    4  56.7  55.0 1021.5 -9.9 -9.999 -99.9 -99.99 -9.99
2019/12/11 19:06 PST    0.03   0.09    3  123    3  56.7  55.0 1021.6 -9.9 -9.999 -99.9 -99.99 -9.99
2019/12/11 19:12 PST    0.12   0.22    1  120    3  56.7  55.0 1021.8 -9.9 -9.999 -99.9 -99.99 -9.99
2019/12/11 19:18 PST    0.22   0.34    0  109    2  56.7  55.0 1021.9 -9.9 -9.999 -99.9 -99.99 -9.99
2019/12/11 19:24 PST    0.32   0.42    1  120    2  56.7  55.0 1022.0 -9.9 -9.999 -99.9 -99.99 -9.99
2019/12/11 19:30 PST    0.42   0.52    0   50    2  57.0  55.0 1022.2 -9.9 -9.999 -99.9 -99.99 -9.99
2019/12/11 19:36 PST    0.53   0.64    2   98    2  57.2  55.0 1022.0 -9.9 -9.999 -99.9 -99.99 -9.99
2019/12/11 19:42 PST    0.64   0.81    2   86    2  57.4  55.0 1022.1 -9.9 -9.999 -99.9 -99.99 -9.99
2019/12/11 19:48 PST    0.76   0.97    2   81    2  57.4  55.0 1022.1 -9.9 -9.999 -99.9 -99.99 -9.99
2019/12/11 19:54 PST    0.88   1.09    3   92    4  57.6  55.0 1022.0 -9.9 -9.999 -99.9 -99.99 -9.99
2019/12/11 20:00 PST    1.00   1.22    2   88    4  57.6  55.0 1022.0 -9.9 -9.999 -99.9 -99.99 -9.99
2019/12/11 20:06 PST    1.12   1.34    4  107    4  57.6  55.0 1021.8 -9.9 -9.999 -99.9 -99.99 -9.99
2019/12/11 20:12 PST    1.24   1.49    5  111    7  57.7  55.0 1021.6 -9.9 -9.999 -99.9 -99.99 -9.99
2019/12/11 20:18 PST    1.37   1.64    7  117    9  57.7  55.0 1021.8 -9.9 -9.999 -99.9 -99.99 -9.99
2019/12/11 20:24 PST    1.50   1.78    7  117    9  57.6  55.0 1021.8 -9.9 -9.999 -99.9 -99.99 -9.99
2019/12/11 20:30 PST    1.63   1.91    7  116    9  57.6  55.0 1021.9 -9.9 -9.999 -99.9 -99.99 -9.99
2019/12/11 20:36 PST    1.76   2.06    6  113    8  57.6  55.0 1021.8 -9.9 -9.999 -99.9 -99.99 -9.99
2019/12/11 20:42 PST    1.89   2.21    6  104    7  58.1  55.0 1021.7 -9.9 -9.999 -99.9 -99.99 -9.99
2019/12/11 20:48 PST    2.02   2.33    7  111    9  58.3  55.0 1021.7 -9.9 -9.999 -99.9 -99.99 -9.99
2019/12/11 20:54 PST    2.16   2.46    6  109    8  58.5  55.0 1021.7 -9.9 -9.999 -99.9 -99.99 -9.99
2019/12/11 21:00 PST    2.29   2.62    6  115    8  58.5  55.0 1021.9 -9.9 -9.999 -99.9 -99.99 -9.99
2019/12/11 21:06 PST    2.42   2.75    4  120    7  58.1  55.0 1021.9 -9.9 -9.999 -99.9 -99.99 -9.99
2019/12/11 21:12 PST    2.55   2.86    3  126    4  58.1  55.0 1022.1 -9.9 -9.999 -99.9 -99.99 -9.99
2019/12/11 21:18 PST    2.68   2.98    2  146    4  57.7  55.0 1022.2 -9.9 -9.999 -99.9 -99.99 -9.99
2019/12/11 21:24 PST    2.81   3.10    4  224    5  56.8  54.9 1022.4 -9.9 -9.999 -99.9 -99.99 -9.99
2019/12/11 21:30 PST    2.94   3.29    5  212    6  57.2  54.9 1022.4 -9.9 -9.999 -99.9 -99.99 -9.99
2019/12/11 21:36 PST    3.07   3.44    4  182    5  57.0  54.9 1022.5 -9.9 -9.999 -99.9 -99.99 -9.99
2019/12/11 21:42 PST    3.20   3.56    4  186    5  56.7  54.9 1022.4 -9.9 -9.999 -99.9 -99.99 -9.99
2019/12/11 21:48 PST    3.32   3.64    4  174    5  56.8  54.9 1022.5 -9.9 -9.999 -99.9 -99.99 -9.99
2019/12/11 21:54 PST    3.45   3.76    3  152    6  56.8  54.9 1022.4 -9.9 -9.999 -99.9 -99.99 -9.99
2019/12/11 22:00 PST    3.57   3.90    3  119    5  56.8  54.9 1022.4 -9.9 -9.999 -99.9 -99.99 -9.99
2019/12/11 22:06 PST    3.69   4.03    4  121    6  56.8  54.9 1022.3 -9.9 -9.999 -99.9 -99.99 -9.99
2019/12/11 22:12 PST    3.81   4.14    4  103    6  56.5  55.0 1022.4 -9.9 -9.999 -99.9 -99.99 -9.99
2019/12/11 22:18 PST    3.92   4.25    4   99    5  57.0  55.0 1022.4 -9.9 -9.999 -99.9 -99.99 -9.99
2019/12/11 22:24 PST    4.04   4.36    6  103    7  57.4  55.0 1022.4 -9.9 -9.999 -99.9 -99.99 -9.99
2019/12/11 22:30 PST    4.15   4.44    6  114    8  57.7  55.0 1022.5 -9.9 -9.999 -99.9 -99.99 -9.99
2019/12/11 22:36 PST    4.25   4.53    6  113    7  57.9  55.0 1022.6 -9.9 -9.999 -99.9 -99.99 -9.99
2019/12/11 22:42 PST    4.35   4.67    4  102    7  57.9  55.0 1022.6 -9.9 -9.999 -99.9 -99.99 -9.99
2019/12/11 22:48 PST    4.45   4.77    4  100    5  57.9  55.0 1022.7 -9.9 -9.999 -99.9 -99.99 -9.99
2019/12/11 22:54 PST    4.55   4.85    4   97    5  58.1  55.0 1022.6 -9.9 -9.999 -99.9 -99.99 -9.99
2019/12/11 23:00 PST    4.64   4.93    4  101    6  58.3  55.0 1022.6 -9.9 -9.999 -99.9 -99.99 -9.99
2019/12/11 23:06 PST    4.73   5.03    4  102    6  58.3  55.0 1022.6 -9.9 -9.999 -99.9 -99.99 -9.99
2019/12/11 23:12 PST    4.81   5.13    4   99    5  58.5  55.0 1022.6 -9.9 -9.999 -99.9 -99.99 -9.99
2019/12/11 23:18 PST    4.89   5.21    4   99    5  58.5  55.0 1022.6 -9.9 -9.999 -99.9 -99.99 -9.99
2019/12/11 23:24 PST    4.96   5.29    3  103    4  58.3  55.0 1022.7 -9.9 -9.999 -99.9 -99.99 -9.99
2019/12/11 23:30 PST    5.03   5.35    4   96    5  58.5  55.0 1022.6 -9.9 -9.999 -99.9 -99.99 -9.99
2019/12/11 23:36 PST    5.09   5.39    5  100    6  58.3  55.0 1022.5 -9.9 -9.999 -99.9 -99.99 -9.99
2019/12/11 23:42 PST    5.15   5.42    4   99    5  58.1  55.0 1022.5 -9.9 -9.999 -99.9 -99.99 -9.99
2019/12/11 23:48 PST    5.20   5.51    4  104    5  57.9  55.0 1022.4 -9.9 -9.999 -99.9 -99.99 -9.99
2019/12/11 23:54 PST    5.25   5.57    4  105    5  57.7  55.0 1022.4 -9.9 -9.999 -99.9 -99.99 -9.99
2019/12/12 00:00 PST    5.29   5.63    3  100    5  57.9  55.0 1022.5 -9.9 -9.999 -99.9 -99.99 -9.99
2019/12/12 00:06 PST    5.32   5.67    3   93    4  58.1  55.0 1022.4 -9.9 -9.999 -99.9 -99.99 -9.99
2019/12/12 00:12 PST    5.35   5.68    3   94    4  58.1  55.0 1022.4 -9.9 -9.999 -99.9 -99.99 -9.99
2019/12/12 00:18 PST    5.37   5.67    4   98    5  58.1  55.0 1022.4 -9.9 -9.999 -99.9 -99.99 -9.99
2019/12/12 00:24 PST    5.38   5.70    3  100    5  58.3  55.0 1022.3 -9.9 -9.999 -99.9 -99.99 -9.99
2019/12/12 00:30 PST    5.39   5.75    3   95    5  58.3  55.0 1022.4 -9.9 -9.999 -99.9 -99.99 -9.99
2019/12/12 00:36 PST    5.39   5.75    3   99    5  58.5  55.0 1022.3 -9.9 -9.999 -99.9 -99.99 -9.99
2019/12/12 00:42 PST    5.38   5.73    4   96    5  58.6  55.0 1022.4 -9.9 -9.999 -99.9 -99.99 -9.99
2019/12/12 00:48 PST    5.37   5.75    5   99    6  58.6  55.0 1022.2 -9.9 -9.999 -99.9 -99.99 -9.99
2019/12/12 00:54 PST    5.35   5.76    5  100    6  58.8  55.0 1022.2 -9.9 -9.999 -99.9 -99.99 -9.99
2019/12/12 01:00 PST    5.33   5.74    4   99    6  58.8  55.0 1022.2 -9.9 -9.999 -99.9 -99.99 -9.99
2019/12/12 01:06 PST    5.30   5.71    4   98    5  59.0  55.0 1022.3 -9.9 -9.999 -99.9 -99.99 -9.99
2019/12/12 01:12 PST    5.26   5.66    4  101    6  58.8  55.0 1022.3 -9.9 -9.999 -99.9 -99.99 -9.99
2019/12/12 01:18 PST    5.22   5.61    4  101    6  58.8  55.0 1022.4 -9.9 -9.999 -99.9 -99.99 -9.99
2019/12/12 01:24 PST    5.17   5.55    4  107    4  58.8  55.0 1022.5 -9.9 -9.999 -99.9 -99.99 -9.99
2019/12/12 01:30 PST    5.12   5.50    4  107    5  58.6  55.0 1022.5 -9.9 -9.999 -99.9 -99.99 -9.99
2019/12/12 01:36 PST    5.06   5.42    4  114    5  58.8  55.0 1022.6 -9.9 -9.999 -99.9 -99.99 -9.99
2019/12/12 01:42 PST    5.00   5.33    4  122    5  58.8  55.0 1022.5 -9.9 -9.999 -99.9 -99.99 -9.99
2019/12/12 01:48 PST    4.94   5.25    3  120    5  58.6  55.0 1022.6 -9.9 -9.999 -99.9 -99.99 -9.99
2019/12/12 01:54 PST    4.87   5.19    2  118    4  58.8  55.0 1022.7 -9.9 -9.999 -99.9 -99.99 -9.99
2019/12/12 02:00 PST    4.80   5.11    3  124    4  58.8  55.0 1022.8 -9.9 -9.999 -99.9 -99.99 -9.99
2019/12/12 02:06 PST    4.72   5.04    2  131    5  58.5  55.0 1022.9 -9.9 -9.999 -99.9 -99.99 -9.99
2019/12/12 02:12 PST    4.65   4.95    2  135    4  58.3  55.0 1022.9 -9.9 -9.999 -99.9 -99.99 -9.99
2019/12/12 02:18 PST    4.57   4.85    2  151    4  58.1  55.0 1023.0 -9.9 -9.999 -99.9 -99.99 -9.99
2019/12/12 02:24 PST    4.49   4.76    2  148    3  58.1  55.0 1023.1 -9.9 -9.999 -99.9 -99.99 -9.99
2019/12/12 02:30 PST    4.41   4.68    2  182    3  57.9  55.0 1023.1 -9.9 -9.999 -99.9 -99.99 -9.99
2019/12/12 02:36 PST    4.32   4.60    1  137    3  58.1  55.0 1023.1 -9.9 -9.999 -99.9 -99.99 -9.99
2019/12/12 02:42 PST    4.24   4.50    2  157    4  58.5  55.0 1023.2 -9.9 -9.999 -99.9 -99.99 -9.99
2019/12/12 02:48 PST    4.16   4.42    4  152    6  58.8  55.0 1023.3 -9.9 -9.999 -99.9 -99.99 -9.99
2019/12/12 02:54 PST    4.08   4.35    3  150    5  58.8  55.0 1023.4 -9.9 -9.999 -99.9 -99.99 -9.99
2019/12/12 03:00 PST    4.00   4.28    2  159    4  59.0  55.0 1023.5 -9.9 -9.999 -99.9 -99.99 -9.99
2019/12/12 03:06 PST    3.91   4.13    2  155    3  59.0  55.0 1023.5 -9.9 -9.999 -99.9 -99.99 -9.99
2019/12/12 03:12 PST    3.84   4.02    2  134    4  59.0  55.0 1023.4 -9.9 -9.999 -99.9 -99.99 -9.99
2019/12/12 03:18 PST    3.76   3.98    4  170    5  59.4  55.0 1023.4 -9.9 -9.999 -99.9 -99.99 -9.99
2019/12/12 03:24 PST    3.68   3.89    3  176    6  59.4  55.0 1023.4 -9.9 -9.999 -99.9 -99.99 -9.99
2019/12/12 03:30 PST    3.61   3.77    3  166    4  59.4  55.0 1023.4 -9.9 -9.999 -99.9 -99.99 -9.99
2019/12/12 03:36 PST    3.54   3.69    3  181    4  59.5  55.0 1023.5 -9.9 -9.999 -99.9 -99.99 -9.99
2019/12/12 03:42 PST    3.47   3.60    2  181    3  59.5  55.0 1023.5 -9.9 -9.999 -99.9 -99.99 -9.99
2019/12/12 03:48 PST    3.40   3.50    2  153    3  59.7  55.0 1023.4 -9.9 -9.999 -99.9 -99.99 -9.99
2019/12/12 03:54 PST    3.34   3.42    3  103    5  58.6  55.0 1023.4 -9.9 -9.999 -99.9 -99.99 -9.99
2019/12/12 04:00 PST    3.28   3.36    2   98    3  58.8  55.0 1023.5 -9.9 -9.999 -99.9 -99.99 -9.99
2019/12/12 04:06 PST    3.23   3.27    2  110    3  58.5  55.0 1023.5 -9.9 -9.999 -99.9 -99.99 -9.99
2019/12/12 04:12 PST    3.18   3.17    3  109    3  58.6  55.0 1023.4 -9.9 -9.999 -99.9 -99.99 -9.99
2019/12/12 04:18 PST    3.13   3.15    3  112    4  58.5  55.0 1023.5 -9.9 -9.999 -99.9 -99.99 -9.99
2019/12/12 04:24 PST    3.08   3.16    1  129    4  58.5  55.0 1023.6 -9.9 -9.999 -99.9 -99.99 -9.99
2019/12/12 04:30 PST    3.04   3.13    1  112    2  58.5  55.0 1023.7 -9.9 -9.999 -99.9 -99.99 -9.99
2019/12/12 04:36 PST    3.01   3.07    2  155    4  58.8  55.0 1023.7 -9.9 -9.999 -99.9 -99.99 -9.99
2019/12/12 04:42 PST    2.98   3.05    1  149    3  59.0  55.0 1023.8 -9.9 -9.999 -99.9 -99.99 -9.99
2019/12/12 04:48 PST    2.95   3.04    0  120    1  59.0  55.0 1023.9 -9.9 -9.999 -99.9 -99.99 -9.99
2019/12/12 04:54 PST    2.93   2.98    0  103    1  59.0  55.0 1023.9 -9.9 -9.999 -99.9 -99.99 -9.99
2019/12/12 05:00 PST    2.91   2.95    1  103    1  59.2  55.0 1024.0 -9.9 -9.999 -99.9 -99.99 -9.99
2019/12/12 05:06 PST    2.90   2.98    1  142    1  59.0  55.0 1024.1 -9.9 -9.999 -99.9 -99.99 -9.99
2019/12/12 05:12 PST    2.89   2.99    1  104    1  59.0  55.0 1024.1 -9.9 -9.999 -99.9 -99.99 -9.99
2019/12/12 05:18 PST    2.88   2.98    0  104    1  59.0  55.0 1024.1 -9.9 -9.999 -99.9 -99.99 -9.99
2019/12/12 05:24 PST    2.88   2.97    0   61    0  59.0  55.0 1024.1 -9.9 -9.999 -99.9 -99.99 -9.99
2019/12/12 05:30 PST    2.89   2.96    0   61    0  59.0  55.0 1024.2 -9.9 -9.999 -99.9 -99.99 -9.99
2019/12/12 05:36 PST    2.90   2.98    0   61    0  59.0  55.0 1024.3 -9.9 -9.999 -99.9 -99.99 -9.99
2019/12/12 05:42 PST    2.92   2.97    0   61    1  59.0  55.0 1024.2 -9.9 -9.999 -99.9 -99.99 -9.99
2019/12/12 05:48 PST    2.94   2.99    1   90    1  59.0  55.0 1024.4 -9.9 -9.999 -99.9 -99.99 -9.99
2019/12/12 05:54 PST    2.97   3.05    1   90    1  59.0  55.0 1024.5 -9.9 -9.999 -99.9 -99.99 -9.99
2019/12/12 06:00 PST    3.00   3.12    2  109    2  59.0  55.0 1024.5 -9.9 -9.999 -99.9 -99.99 -9.99
2019/12/12 06:06 PST    3.04   3.15    2  109    3  58.8  55.0 1024.4 -9.9 -9.999 -99.9 -99.99 -9.99
2019/12/12 06:12 PST    3.08   3.16    2  128    3  58.8  55.0 1024.5 -9.9 -9.999 -99.9 -99.99 -9.99
2019/12/12 06:18 PST    3.12   3.21    3  212    4  58.8  55.0 1024.7 -9.9 -9.999 -99.9 -99.99 -9.99
2019/12/12 06:24 PST    3.18   3.30    3  221    4  59.0  55.0 1024.7 -9.9 -9.999 -99.9 -99.99 -9.99
2019/12/12 06:30 PST    3.24   3.38    4  231    6  59.0  55.0 1024.8 -9.9 -9.999 -99.9 -99.99 -9.99
2019/12/12 06:36 PST    3.30   3.44    4  229    5  58.8  55.0 1024.7 -9.9 -9.999 -99.9 -99.99 -9.99
2019/12/12 06:42 PST    3.37   3.52    3  213    4  58.3  55.0 1024.8 -9.9 -9.999 -99.9 -99.99 -9.99
2019/12/12 06:48 PST    3.44   3.58    1  120    3  58.3  55.0 1024.9 -9.9 -9.999 -99.9 -99.99 -9.99
2019/12/12 06:54 PST    3.51   3.66    4  155    5  58.5  55.0 1024.8 -9.9 -9.999 -99.9 -99.99 -9.99
2019/12/12 07:00 PST    3.60   3.77    2  140    4  58.1  55.0 1024.9 -9.9 -9.999 -99.9 -99.99 -9.99
2019/12/12 07:06 PST    3.68   3.90    2  109    3  58.3  55.0 1024.9 -9.9 -9.999 -99.9 -99.99 -9.99
2019/12/12 07:12 PST    3.77   3.99    0   65    2  58.3  55.0 1025.1 -9.9 -9.999 -99.9 -99.99 -9.99
2019/12/12 07:18 PST    3.87   4.08    0   87    1  58.3  55.0 1025.1 -9.9 -9.999 -99.9 -99.99 -9.99
2019/12/12 07:24 PST    3.96   4.16    2  102    2  58.5  55.0 1025.2 -9.9 -9.999 -99.9 -99.99 -9.99
2019/12/12 07:30 PST    4.06   4.27    1   91    2  58.5  55.0 1025.3 -9.9 -9.999 -99.9 -99.99 -9.99
2019/12/12 07:36 PST    4.17   4.39    2   95    2  58.5  55.0 1025.3 -9.9 -9.999 -99.9 -99.99 -9.99
2019/12/12 07:42 PST    4.27   4.51    1  101    3  58.5  55.0 1025.4 -9.9 -9.999 -99.9 -99.99 -9.99
2019/12/12 07:48 PST    4.38   4.60    2   89    2  58.5  54.9 1025.5 -9.9 -9.999 -99.9 -99.99 -9.99
2019/12/12 07:54 PST    4.49   4.70    2  103    2  58.5  54.9 1025.5 -9.9 -9.999 -99.9 -99.99 -9.99
2019/12/12 08:00 PST    4.61   4.85    1  103    1  58.5  54.9 1025.6 -9.9 -9.999 -99.9 -99.99 -9.99
2019/12/12 08:06 PST    4.72   4.99    1   94    2  58.5  54.9 1025.7 -9.9 -9.999 -99.9 -99.99 -9.99
2019/12/12 08:12 PST    4.84   5.08    2   90    2  58.6  54.9 1025.8 -9.9 -9.999 -99.9 -99.99 -9.99
2019/12/12 08:18 PST    4.95   5.15    2   96    2  58.6  54.9 1025.8 -9.9 -9.999 -99.9 -99.99 -9.99
2019/12/12 08:24 PST    5.07   5.27    2  103    2  58.5  54.9 1025.7 -9.9 -9.999 -99.9 -99.99 -9.99
2019/12/12 08:30 PST    5.18   5.43    2  107    3  58.3  54.9 1025.7 -9.9 -9.999 -99.9 -99.99 -9.99
2019/12/12 08:36 PST    5.30   5.59    3  106    3  58.3  54.9 1025.8 -9.9 -9.999 -99.9 -99.99 -9.99
2019/12/12 08:42 PST    5.41   5.72    2  100    3  58.6  54.9 1025.9 -9.9 -9.999 -99.9 -99.99 -9.99
2019/12/12 08:48 PST    5.53   5.82    3  103    4  58.6  54.9 1025.9 -9.9 -9.999 -99.9 -99.99 -9.99
2019/12/12 08:54 PST    5.64   5.89    3  106    4  58.6  54.9 1026.0 -9.9 -9.999 -99.9 -99.99 -9.99
2019/12/12 09:00 PST    5.75   5.98    4  105    4  58.5  54.9 1026.0 -9.9 -9.999 -99.9 -99.99 -9.99
2019/12/12 09:06 PST    5.85   6.11    3  103    4  58.8  54.9 1026.0 -9.9 -9.999 -99.9 -99.99 -9.99
2019/12/12 09:12 PST    5.96   6.23    4  112    4  58.6  54.9 1026.0 -9.9 -9.999 -99.9 -99.99 -9.99
2019/12/12 09:18 PST    6.06   6.36    4  117    5  58.6  54.9 1026.1 -9.9 -9.999 -99.9 -99.99 -9.99
2019/12/12 09:24 PST    6.16   6.44    3  124    5  57.9  54.9 1026.2 -9.9 -9.999 -99.9 -99.99 -9.99
2019/12/12 09:30 PST    6.25   6.56    3  125    4  58.1  54.9 1026.3 -9.9 -9.999 -99.9 -99.99 -9.99
2019/12/12 09:36 PST    6.35   6.65    1  110    3  58.1  54.9 1026.4 -9.9 -9.999 -99.9 -99.99 -9.99
2019/12/12 09:42 PST    6.43   6.73    1  106    2  58.1  54.9 1026.4 -9.9 -9.999 -99.9 -99.99 -9.99
2019/12/12 09:48 PST    6.52   6.80    2   96    3  58.1  55.0 1026.5 -9.9 -9.999 -99.9 -99.99 -9.99
2019/12/12 09:54 PST    6.60   6.89    2   99    3  57.9  55.0 1026.5 -9.9 -9.999 -99.9 -99.99 -9.99
2019/12/12 10:00 PST    6.67   6.98    4  104    4  57.6  55.0 1026.4 -9.9 -9.999 -99.9 -99.99 -9.99
2019/12/12 10:06 PST    6.74   7.06    2  115    5  58.3  55.0 1026.5 -9.9 -9.999 -99.9 -99.99 -9.99
2019/12/12 10:12 PST    6.80   7.14    1  116    3  58.6  55.0 1026.6 -9.9 -9.999 -99.9 -99.99 -9.99
2019/12/12 10:18 PST    6.86   7.17    0   91    1  58.6  55.0 1026.7 -9.9 -9.999 -99.9 -99.99 -9.99
2019/12/12 10:24 PST    6.91   7.22    2  142    2  58.6  55.0 1026.6 -9.9 -9.999 -99.9 -99.99 -9.99
2019/12/12 10:30 PST    6.96   7.32    1  159    2  58.8  55.0 1026.6 -9.9 -9.999 -99.9 -99.99 -9.99
2019/12/12 10:36 PST    7.00   7.40    1  151    2  58.8  55.0 1026.7 -9.9 -9.999 -99.9 -99.99 -9.99
2019/12/12 10:42 PST    7.04   7.43    1  139    1  58.8  55.0 1026.7 -9.9 -9.999 -99.9 -99.99 -9.99
2019/12/12 10:48 PST    7.07   7.46    1  159    2  58.8  55.0 1026.6 -9.9 -9.999 -99.9 -99.99 -9.99
2019/12/12 10:54 PST    7.09   7.44    1   72    2  59.0  55.0 1026.7 -9.9 -9.999 -99.9 -99.99 -9.99
2019/12/12 11:00 PST    7.11   7.47    1  104    2  59.2  55.0 1026.6 -9.9 -9.999 -99.9 -99.99 -9.99
2019/12/12 11:06 PST    7.12   7.50    1  106    1  59.5  55.2 1026.6 -9.9 -9.999 -99.9 -99.99 -9.99
2019/12/12 11:12 PST    7.12   7.52    1  139    2  59.5  55.0 1026.5 -9.9 -9.999 -99.9 -99.99 -9.99
2019/12/12 11:18 PST    7.12   7.52    1  166    2  59.5  55.0 1026.4 -9.9 -9.999 -99.9 -99.99 -9.99
2019/12/12 11:24 PST    7.11   7.49    1  254    2  59.4  55.0 1026.4 -9.9 -9.999 -99.9 -99.99 -9.99
2019/12/12 11:30 PST    7.09   7.46    2  277    3  59.5  55.0 1026.4 -9.9 -9.999 -99.9 -99.99 -9.99
2019/12/12 11:36 PST    7.06   7.42    1  303    2  59.9  55.0 1026.3 -9.9 -9.999 -99.9 -99.99 -9.99
2019/12/12 11:42 PST    7.03   7.36    1  232    1  59.5  55.0 1026.3 -9.9 -9.999 -99.9 -99.99 -9.99
2019/12/12 11:48 PST    6.99   7.28    1  251    2  59.7  55.0 1026.2 -9.9 -9.999 -99.9 -99.99 -9.99
2019/12/12 11:54 PST    6.94   7.24    2  279    3  59.7  55.0 1026.3 -9.9 -9.999 -99.9 -99.99 -9.99
2019/12/12 12:00 PST    6.89   7.18    4  286    4  58.8  55.0 1026.3 -9.9 -9.999 -99.9 -99.99 -9.99
2019/12/12 12:06 PST    6.82   7.10    4  281    4  58.6  55.0 1026.4 -9.9 -9.999 -99.9 -99.99 -9.99
2019/12/12 12:12 PST    6.75   6.98    4  286    5  58.6  55.0 1026.3 -9.9 -9.999 -99.9 -99.99 -9.99
2019/12/12 12:18 PST    6.67   6.89    2  283    4  58.6  55.0 1026.2 -9.9 -9.999 -99.9 -99.99 -9.99
2019/12/12 12:24 PST    6.59   6.78    1  317    2  58.8  55.0 1026.2 -9.9 -9.999 -99.9 -99.99 -9.99
2019/12/12 12:30 PST    6.50   6.65    1  322    1  58.8  55.0 1026.1 -9.9 -9.999 -99.9 -99.99 -9.99
2019/12/12 12:36 PST    6.39   6.52    1  335    1  59.0  55.0 1026.0 -9.9 -9.999 -99.9 -99.99 -9.99
2019/12/12 12:42 PST    6.29   6.38    0  315    1  59.2  55.0 1025.8 -9.9 -9.999 -99.9 -99.99 -9.99
2019/12/12 12:48 PST    6.17   6.24    1  150    2  59.0  55.0 1025.6 -9.9 -9.999 -99.9 -99.99 -9.99
2019/12/12 12:54 PST    6.05   6.10    1  267    2  59.2  55.0 1025.9 -9.9 -9.999 -99.9 -99.99 -9.99
2019/12/12 13:00 PST    5.92   5.96    2  310    2  59.4  55.0 1025.8 -9.9 -9.999 -99.9 -99.99 -9.99
2019/12/12 13:06 PST    5.78   5.76    1  342    2  59.2  55.0 1025.6 -9.9 -9.999 -99.9 -99.99 -9.99
2019/12/12 13:12 PST    5.64   5.60    2  332    3  59.4  55.2 1025.7 -9.9 -9.999 -99.9 -99.99 -9.99
2019/12/12 13:18 PST    5.49   5.45    1  298    3  59.7  55.2 1025.6 -9.9 -9.999 -99.9 -99.99 -9.99
2019/12/12 13:24 PST    5.33   5.27    2  341    3  59.5  55.2 1025.7 -9.9 -9.999 -99.9 -99.99 -9.99
2019/12/12 13:30 PST    5.17   5.10    1  338    3  59.5  55.2 1025.6 -9.9 -9.999 -99.9 -99.99 -9.99
2019/12/12 13:36 PST    5.01   4.91    1  334    2  59.7  55.2 1025.7 -9.9 -9.999 -99.9 -99.99 -9.99
2019/12/12 13:42 PST    4.84   4.72    0   17    1  59.7  55.2 1025.6 -9.9 -9.999 -99.9 -99.99 -9.99
2019/12/12 13:48 PST    4.66   4.56    1  272    1  59.5  55.2 1025.5 -9.9 -9.999 -99.9 -99.99 -9.99
2019/12/12 13:54 PST    4.48   4.40    0  272    1  59.5  55.2 1025.4 -9.9 -9.999 -99.9 -99.99 -9.99
2019/12/12 14:00 PST    4.30   4.23    1  319    2  59.4  55.2 1025.4 -9.9 -9.999 -99.9 -99.99 -9.99
2019/12/12 14:06 PST    4.12   4.05    1  296    2  59.4  55.2 1025.4 -9.9 -9.999 -99.9 -99.99 -9.99
2019/12/12 14:12 PST    3.93   3.83    1  303    2  59.2  55.2 1025.4 -9.9 -9.999 -99.9 -99.99 -9.99
2019/12/12 14:18 PST    3.74   3.64    3  289    3  59.2  55.2 1025.4 -9.9 -9.999 -99.9 -99.99 -9.99
2019/12/12 14:24 PST    3.55   3.47    3  286    4  59.2  55.2 1025.5 -9.9 -9.999 -99.9 -99.99 -9.99
2019/12/12 14:30 PST    3.36   3.29    2  288    3  59.2  55.2 1025.4 -9.9 -9.999 -99.9 -99.99 -9.99
2019/12/12 14:36 PST    3.17   3.08    0  272    1  59.2  55.2 1025.3 -9.9 -9.999 -99.9 -99.99 -9.99
2019/12/12 14:42 PST    2.98   2.90    0  325    1  59.2  55.2 1025.1 -9.9 -9.999 -99.9 -99.99 -9.99
2019/12/12 14:48 PST    2.79   2.72    2  327    3  59.2  55.2 1025.2 -9.9 -9.999 -99.9 -99.99 -9.99
2019/12/12 14:54 PST    2.61   2.55    1  313    3  59.2  55.2 1025.2 -9.9 -9.999 -99.9 -99.99 -9.99
2019/12/12 15:00 PST    2.42   2.40    1  280    2  59.5  55.2 1025.2 -9.9 -9.999 -99.9 -99.99 -9.99
2019/12/12 15:06 PST    2.24   2.25    1  282    2  59.5  55.2 1025.2 -9.9 -9.999 -99.9 -99.99 -9.99
2019/12/12 15:12 PST    2.05   2.07    2  303    4  59.4  55.2 1025.3 -9.9 -9.999 -99.9 -99.99 -9.99
2019/12/12 15:18 PST    1.88   1.89    0  336    2  59.7  55.2 1025.0 -9.9 -9.999 -99.9 -99.99 -9.99
2019/12/12 15:24 PST    1.70   1.73    0  346    1  60.1  55.4 1025.0 -9.9 -9.999 -99.9 -99.99 -9.99
2019/12/12 15:30 PST    1.53   1.59    1  321    2  59.7  55.4 1025.0 -9.9 -9.999 -99.9 -99.99 -9.99
2019/12/12 15:36 PST    1.36   1.46    2  314    3  59.7  55.4 1025.1 -9.9 -9.999 -99.9 -99.99 -9.99
2019/12/12 15:42 PST    1.20   1.32    3  307    3  59.7  55.4 1025.3 -9.9 -9.999 -99.9 -99.99 -9.99
2019/12/12 15:48 PST    1.05   1.18    3  292    4  59.9  55.4 1025.4 -9.9 -9.999 -99.9 -99.99 -9.99
2019/12/12 15:54 PST    0.89   1.01    2  305    4  59.9  55.4 1025.6 -9.9 -9.999 -99.9 -99.99 -9.99
2019/12/12 16:00 PST    0.75   0.84    2  305    4  59.9  55.4 1025.6 -9.9 -9.999 -99.9 -99.99 -9.99
2019/12/12 16:06 PST    0.61   0.71    2  308    4  59.9  55.4 1025.6 -9.9 -9.999 -99.9 -99.99 -9.99
2019/12/12 16:12 PST    0.47   0.62    3  303    5  59.4  55.4 1025.4 -9.9 -9.999 -99.9 -99.99 -9.99
2019/12/12 16:18 PST    0.34   0.50    3  298    4  59.2  55.4 1025.4 -9.9 -9.999 -99.9 -99.99 -9.99
2019/12/12 16:24 PST    0.22   0.34    2  316    4  59.0  55.4 1025.3 -9.9 -9.999 -99.9 -99.99 -9.99
2019/12/12 16:30 PST    0.10   0.20    3  320    4  58.8  55.4 1025.5 -9.9 -9.999 -99.9 -99.99 -9.99
2019/12/12 16:36 PST   -0.01   0.09    2  307    3  58.8  55.4 1025.6 -9.9 -9.999 -99.9 -99.99 -9.99
2019/12/12 16:42 PST   -0.12  -0.02    1  302    3  58.8  55.4 1025.3 -9.9 -9.999 -99.9 -99.99 -9.99
2019/12/12 16:48 PST   -0.22  -0.15    0  245    1  58.6  55.4 1025.1 -9.9 -9.999 -99.9 -99.99 -9.99
2019/12/12 16:54 PST   -0.31  -0.24    0  129    1  58.3  55.4 1025.2 -9.9 -9.999 -99.9 -99.99 -9.99
2019/12/12 17:00 PST   -0.39  -0.28    0  272    1  58.5  55.4 1025.3 -9.9 -9.999 -99.9 -99.99 -9.99
2019/12/12 17:06 PST   -0.47  -0.38    2    0    2  58.6  55.4 1025.2 -9.9 -9.999 -99.9 -99.99 -9.99
2019/12/12 17:12 PST   -0.54  -0.48    2  345    2  58.5  55.4 1025.2 -9.9 -9.999 -99.9 -99.99 -9.99
2019/12/12 17:18 PST   -0.61  -0.55    1  341    2  58.6  55.4 1025.1 -9.9 -9.999 -99.9 -99.99 -9.99
2019/12/12 17:24 PST   -0.67  -0.63    2  338    2  58.6  55.4 1025.3 -9.9 -9.999 -99.9 -99.99 -9.99
2019/12/12 17:30 PST   -0.72  -0.70    2  332    3  58.6  55.4 1025.4 -9.9 -9.999 -99.9 -99.99 -9.99
2019/12/12 17:36 PST   -0.76  -0.78    2  342    3  58.8  55.4 1025.4 -9.9 -9.999 -99.9 -99.99 -9.99
2019/12/12 17:42 PST   -0.80  -0.78    1  339    2  58.8  55.4 1025.4 -9.9 -9.999 -99.9 -99.99 -9.99
2019/12/12 17:48 PST   -0.83  -0.83    2  284    2  58.6  55.4 1025.5 -9.9 -9.999 -99.9 -99.99 -9.99
2019/12/12 17:54 PST   -0.86  -0.87    1  301    3  58.5  55.4 1025.7 -9.9 -9.999 -99.9 -99.99 -9.99
2019/12/12 18:00 PST   -0.88  -0.94    1  296    2  58.5  55.4 1025.6 -9.9 -9.999 -99.9 -99.99 -9.99
2019/12/12 18:06 PST   -0.89  -0.95    1  330    1  58.3  55.4 1025.5 -9.9 -9.999 -99.9 -99.99 -9.99
2019/12/12 18:12 PST   -0.89  -0.94    2  326    3  58.1  55.4 1025.5 -9.9 -9.999 -99.9 -99.99 -9.99
2019/12/12 18:18 PST   -0.89  -0.98    1  329    2  58.1  55.4 1025.6 -9.9 -9.999 -99.9 -99.99 -9.99
2019/12/12 18:24 PST   -0.88  -1.03    1  340    2  58.3  55.4 1025.4 -9.9 -9.999 -99.9 -99.99 -9.99
2019/12/12 18:30 PST   -0.87  -1.04    2  341    3  58.3  55.4 1025.4 -9.9 -9.999 -99.9 -99.99 -9.99
2019/12/12 18:36 PST   -0.85  -1.03    0   52    2  58.3  55.4 1025.2 -9.9 -9.999 -99.9 -99.99 -9.99
2019/12/12 18:42 PST   -0.82  -1.05    0   69    0  58.3  55.4 1025.5 -9.9 -9.999 -99.9 -99.99 -9.99
2019/12/12 18:48 PST   -0.79  -1.01    0   59    0  58.5  55.4 1025.4 -9.9 -9.999 -99.9 -99.99 -9.99
2019/12/12 18:54 PST   -0.75  -0.96    1  272    1  58.3  55.4 1025.4 -9.9 -9.999 -99.9 -99.99 -9.99
2019/12/12 19:00 PST   -0.70  -0.91    0  269    1  58.3  55.2 1025.2 -9.9 -9.999 -99.9 -99.99 -9.99
2019/12/12 19:06 PST   -0.65  -0.84    0  269    0  58.1  55.4 1025.0 -9.9 -9.999 -99.9 -99.99 -9.99
2019/12/12 19:12 PST   -0.59  -0.84    0  293    1  58.1  55.4 1024.9 -9.9 -9.999 -99.9 -99.99 -9.99
2019/12/12 19:18 PST   -0.52  -0.75    2  334    3  58.1  55.4 1025.2 -9.9 -9.999 -99.9 -99.99 -9.99
2019/12/12 19:24 PST   -0.45  -0.64    0  255    4  58.3  55.4 1025.2 -9.9 -9.999 -99.9 -99.99 -9.99
2019/12/12 19:30 PST   -0.38  -0.53    1  330    2  58.3  55.4 1025.4 -9.9 -9.999 -99.9 -99.99 -9.99
2019/12/12 19:36 PST   -0.30  -0.49    0  291    1  58.3  55.4 1025.3 -9.9 -9.999 -99.9 -99.99 -9.99
2019/12/12 19:42 PST   -0.21  -0.38    1  186    2  57.9  55.4 1025.2 -9.9 -9.999 -99.9 -99.99 -9.99
2019/12/12 19:48 PST   -0.12  -0.27    2  201    3  57.9  55.4 1025.1 -9.9 -9.999 -99.9 -99.99 -9.99
2019/12/12 19:54 PST   -0.02  -0.17    1  137    4  58.1  55.4 1025.2 -9.9 -9.999 -99.9 -99.99 -9.99
2019/12/12 20:00 PST    0.08  -0.09    1  260    2  57.7  55.4 1025.3 -9.9 -9.999 -99.9 -99.99 -9.99
2019/12/12 20:06 PST    0.19  -0.01    2  286    3  57.7  55.4 1025.4 -9.9 -9.999 -99.9 -99.99 -9.99
2019/12/12 20:12 PST    0.30   0.09    2  274    2  57.7  55.4 1025.5 -9.9 -9.999 -99.9 -99.99 -9.99
2019/12/12 20:18 PST    0.41   0.30    2  278    3  57.9  55.4 1025.5 -9.9 -9.999 -99.9 -99.99 -9.99
2019/12/12 20:24 PST    0.53   0.43    2  284    3  57.9  55.4 1025.4 -9.9 -9.999 -99.9 -99.99 -9.99
2019/12/12 20:30 PST    0.65   0.53    2  281    2  57.9  55.4 1025.3 -9.9 -9.999 -99.9 -99.99 -9.99
2019/12/12 20:36 PST    0.77   0.61    2  255    3  57.7  55.4 1025.3 -9.9 -9.999 -99.9 -99.99 -9.99
2019/12/12 20:42 PST    0.90   0.77    3  276    4  57.9  55.4 1025.3 -9.9 -9.999 -99.9 -99.99 -9.99
2019/12/12 20:48 PST    1.02   0.95    3  278    4  57.9  55.4 1025.4 -9.9 -9.999 -99.9 -99.99 -9.99
2019/12/12 20:54 PST    1.15   1.16    2  273    3  57.7  55.4 1025.1 -9.9 -9.999 -99.9 -99.99 -9.99
2019/12/12 21:00 PST    1.29   1.31    2  292    2  57.9  55.4 1025.4 -9.9 -9.999 -99.9 -99.99 -9.99
2019/12/12 21:06 PST    1.42   1.44    2  299    3  57.9  55.4 1025.3 -9.9 -9.999 -99.9 -99.99 -9.99
2019/12/12 21:12 PST    1.56   1.59    2  278    2  57.7  55.4 1025.2 -9.9 -9.999 -99.9 -99.99 -9.99
2019/12/12 21:18 PST    1.69   1.70    2  282    2  57.7  55.4 1025.1 -9.9 -9.999 -99.9 -99.99 -9.99
2019/12/12 21:24 PST    1.83   1.88    2  274    3  57.2  55.4 1025.1 -9.9 -9.999 -99.9 -99.99 -9.99
2019/12/12 21:30 PST    1.96   2.03    2  263    3  57.0  55.4 1025.2 -9.9 -9.999 -99.9 -99.99 -9.99
2019/12/12 21:36 PST    2.10   2.20    3  256    3  56.8  55.4 1025.2 -9.9 -9.999 -99.9 -99.99 -9.99
2019/12/12 21:42 PST    2.24   2.32    3  253    4  56.7  55.4 1025.1 -9.9 -9.999 -99.9 -99.99 -9.99
2019/12/12 21:48 PST    2.38   2.46    3  258    4  56.7  55.4 1025.2 -9.9 -9.999 -99.9 -99.99 -9.99
2019/12/12 21:54 PST    2.51   2.53    3  272    4  57.0  55.4 1025.2 -9.9 -9.999 -99.9 -99.99 -9.99
2019/12/12 22:00 PST    2.65   2.64    3  253    4  56.7  55.4 1025.5 -9.9 -9.999 -99.9 -99.99 -9.99
2019/12/12 22:06 PST    2.78   2.82    2  251    3  57.2  55.4 1025.4 -9.9 -9.999 -99.9 -99.99 -9.99
2019/12/12 22:12 PST    2.92   2.98    3  295    4  56.8  55.4 1025.5 -9.9 -9.999 -99.9 -99.99 -9.99
2019/12/12 22:18 PST    3.05   3.10    2  273    4  56.8  55.4 1025.5 -9.9 -9.999 -99.9 -99.99 -9.99
2019/12/12 22:24 PST    3.18   3.23    2  288    2  56.8  55.4 1025.4 -9.9 -9.999 -99.9 -99.99 -9.99
2019/12/12 22:30 PST    3.31   3.36    2  276    2  56.8  55.4 1025.6 -9.9 -9.999 -99.9 -99.99 -9.99
2019/12/12 22:36 PST    3.44   3.44    2  266    3  56.7  55.4 1025.6 -9.9 -9.999 -99.9 -99.99 -9.99
2019/12/12 22:42 PST    3.57   3.60    2  273    3  56.7  55.4 1025.5 -9.9 -9.999 -99.9 -99.99 -9.99
2019/12/12 22:48 PST    3.69   3.76    2  286    2  56.5  55.4 1025.7 -9.9 -9.999 -99.9 -99.99 -9.99
2019/12/12 22:54 PST    3.81   3.82    1  294    2  56.5  55.4 1025.7 -9.9 -9.999 -99.9 -99.99 -9.99
2019/12/12 23:00 PST    3.93   3.95    2  276    3  56.5  55.4 1025.6 -9.9 -9.999 -99.9 -99.99 -9.99
2019/12/12 23:06 PST    4.04   4.08    1  284    2  56.5  55.4 1025.6 -9.9 -9.999 -99.9 -99.99 -9.99
2019/12/12 23:12 PST    4.16   4.23    1  317    2  56.7  55.4 1025.6 -9.9 -9.999 -99.9 -99.99 -9.99
2019/12/12 23:18 PST    4.27   4.32    1  292    2  56.5  55.4 1025.6 -9.9 -9.999 -99.9 -99.99 -9.99
2019/12/12 23:24 PST    4.37   4.41    0  351    2  56.7  55.4 1025.2 -9.9 -9.999 -99.9 -99.99 -9.99
2019/12/12 23:30 PST    4.47   4.51    1  348    2  56.5  55.4 1025.5 -9.9 -9.999 -99.9 -99.99 -9.99
2019/12/12 23:36 PST    4.57   4.62    1  300    3  56.7  55.4 1025.7 -9.9 -9.999 -99.9 -99.99 -9.99
2019/12/12 23:42 PST    4.67   4.71    3  278    4  56.5  55.4 1025.8 -9.9 -9.999 -99.9 -99.99 -9.99
2019/12/12 23:48 PST    4.76   4.77    2  292    4  56.3  55.4 1025.4 -9.9 -9.999 -99.9 -99.99 -9.99
2019/12/12 23:54 PST    4.84   4.89    2  288    2  56.1  55.4 1025.3 -9.9 -9.999 -99.9 -99.99 -9.99
2019/12/13 00:00 PST    4.93   4.91    2  284    3  56.1  55.4 1025.4 -9.9 -9.999 -99.9 -99.99 -9.99
2019/12/13 00:06 PST    5.00   5.04    3  283    4  55.9  55.4 1025.5 -9.9 -9.999 -99.9 -99.99 -9.99
2019/12/13 00:12 PST    5.07   5.16    4  281    6  55.8  55.4 1025.8 -9.9 -9.999 -99.9 -99.99 -9.99
2019/12/13 00:18 PST    5.14   5.20    4  284    6  55.4  55.4 1025.9 -9.9 -9.999 -99.9 -99.99 -9.99
2019/12/13 00:24 PST    5.20   5.19    3  292    5  55.6  55.4 1025.8 -9.9 -9.999 -99.9 -99.99 -9.99
2019/12/13 00:30 PST    5.25   5.26    2  302    4  55.6  55.4 1025.6 -9.9 -9.999 -99.9 -99.99 -9.99
2019/12/13 00:36 PST    5.30   5.35    2  322    3  55.8  55.4 1025.5 -9.9 -9.999 -99.9 -99.99 -9.99
2019/12/13 00:42 PST    5.35   5.40    2  303    4  55.8  55.4 1025.3 -9.9 -9.999 -99.9 -99.99 -9.99
2019/12/13 00:48 PST    5.38   5.45    1  322    3  55.8  55.4 1025.0 -9.9 -9.999 -99.9 -99.99 -9.99
2019/12/13 00:54 PST    5.41   5.44    2  308    3  55.8  55.4 1025.2 -9.9 -9.999 -99.9 -99.99 -9.99
2019/12/13 01:00 PST    5.44   5.42    2  294    3  55.6  55.4 1025.1 -9.9 -9.999 -99.9 -99.99 -9.99
2019/12/13 01:06 PST    5.45   5.44    1  320    2  55.6  55.4 1024.8 -9.9 -9.999 -99.9 -99.99 -9.99
2019/12/13 01:12 PST    5.46   5.48    1  291    2  55.6  55.4 1024.8 -9.9 -9.999 -99.9 -99.99 -9.99
2019/12/13 01:18 PST    5.47   5.52    3  284    3  55.6  55.4 1024.8 -9.9 -9.999 -99.9 -99.99 -9.99
2019/12/13 01:24 PST    5.47   5.52    3  290    4  55.6  55.4 1025.1 -9.9 -9.999 -99.9 -99.99 -9.99
2019/12/13 01:30 PST    5.46   5.51    3  297    4  55.6  55.4 1025.1 -9.9 -9.999 -99.9 -99.99 -9.99
2019/12/13 01:36 PST    5.44   5.56    4  285    4  55.6  55.4 1025.0 -9.9 -9.999 -99.9 -99.99 -9.99
2019/12/13 01:42 PST    5.42   5.58    3  285    4  55.6  55.4 1025.0 -9.9 -9.999 -99.9 -99.99 -9.99
2019/12/13 01:48 PST    5.40   5.51    2  282    4  55.4  55.4 1024.8 -9.9 -9.999 -99.9 -99.99 -9.99
2019/12/13 01:54 PST    5.36   5.46    1  272    2  55.4  55.4 1024.8 -9.9 -9.999 -99.9 -99.99 -9.99
2019/12/13 02:00 PST    5.32   5.40    1  242    2  55.2  55.4 1024.6 -9.9 -9.999 -99.9 -99.99 -9.99
2019/12/13 02:06 PST    5.28   5.41    2  201    2  55.2  55.4 1024.4 -9.9 -9.999 -99.9 -99.99 -9.99
2019/12/13 02:12 PST    5.23   5.41    1  117    2  55.2  55.4 1024.1 -9.9 -9.999 -99.9 -99.99 -9.99
2019/12/13 02:18 PST    5.18   5.35    1  176    2  55.2  55.4 1024.2 -9.9 -9.999 -99.9 -99.99 -9.99
2019/12/13 02:24 PST    5.12   5.27    1  200    2  55.0  55.4 1024.2 -9.9 -9.999 -99.9 -99.99 -9.99
2019/12/13 02:30 PST    5.06   5.12    2  185    4  55.0  55.4 1024.2 -9.9 -9.999 -99.9 -99.99 -9.99
2019/12/13 02:36 PST    4.99   5.06    3  195    3  55.0  55.4 1024.1 -9.9 -9.999 -99.9 -99.99 -9.99
2019/12/13 02:42 PST    4.92   5.02    3  178    4  55.0  55.4 1024.2 -9.9 -9.999 -99.9 -99.99 -9.99
2019/12/13 02:48 PST    4.85   4.98    2  161    3  55.0  55.4 1024.1 -9.9 -9.999 -99.9 -99.99 -9.99
2019/12/13 02:54 PST    4.77   4.83    4  179    5  54.9  55.4 1024.0 -9.9 -9.999 -99.9 -99.99 -9.99
2019/12/13 03:00 PST    4.69   4.74    4  182    4  54.9  55.4 1023.9 -9.9 -9.999 -99.9 -99.99 -9.99
2019/12/13 03:06 PST    4.62   4.68    2  129    4  54.9  55.4 1023.6 -9.9 -9.999 -99.9 -99.99 -9.99
2019/12/13 03:12 PST    4.53   4.63    2  133    4  54.9  55.4 1023.6 -9.9 -9.999 -99.9 -99.99 -9.99
2019/12/13 03:18 PST    4.45   4.50    2  100    4  54.9  55.4 1023.8 -9.9 -9.999 -99.9 -99.99 -9.99
2019/12/13 03:24 PST    4.37   4.40    0  108    1  55.0  55.4 1024.0 -9.9 -9.999 -99.9 -99.99 -9.99
2019/12/13 03:30 PST    4.29   4.31    2  210    3  54.9  55.4 1024.0 -9.9 -9.999 -99.9 -99.99 -9.99
2019/12/13 03:36 PST    4.21   4.29    2  156    3  54.9  55.4 1024.0 -9.9 -9.999 -99.9 -99.99 -9.99
2019/12/13 03:42 PST    4.12   4.19    3  208    3  54.7  55.4 1024.2 -9.9 -9.999 -99.9 -99.99 -9.99
2019/12/13 03:48 PST    4.04   4.14    3  219    4  54.7  55.4 1024.2 -9.9 -9.999 -99.9 -99.99 -9.99
2019/12/13 03:54 PST    3.96   3.99    3  213    4  54.5  55.4 1024.3 -9.9 -9.999 -99.9 -99.99 -9.99
2019/12/13 04:00 PST    3.89   3.90    4  217    5  54.3  55.4 1024.0 -9.9 -9.999 -99.9 -99.99 -9.99
2019/12/13 04:06 PST    3.81   3.79    4  217    5  54.3  55.4 1024.1 -9.9 -9.999 -99.9 -99.99 -9.99
2019/12/13 04:12 PST    3.74   3.74    3  224    4  54.1  55.4 1024.0 -9.9 -9.999 -99.9 -99.99 -9.99
2019/12/13 04:18 PST    3.67   3.68    1  212    3  54.1  55.4 1023.9 -9.9 -9.999 -99.9 -99.99 -9.99
2019/12/13 04:24 PST    3.60   3.59    1  239    2  54.1  55.4 1023.9 -9.9 -9.999 -99.9 -99.99 -9.99
2019/12/13 04:30 PST    3.53   3.52    1  225    1  54.1  55.4 1023.8 -9.9 -9.999 -99.9 -99.99 -9.99
2019/12/13 04:36 PST    3.47   3.41    2  212    2  54.1  55.4 1023.9 -9.9 -9.999 -99.9 -99.99 -9.99
2019/12/13 04:42 PST    3.41   3.35    1  240    3  54.3  55.4 1023.9 -9.9 -9.999 -99.9 -99.99 -9.99
2019/12/13 04:48 PST    3.36   3.33    0  318    2  54.3  55.4 1023.8 -9.9 -9.999 -99.9 -99.99 -9.99
2019/12/13 04:54 PST    3.30   3.30    1  231    2  54.1  55.4 1023.8 -9.9 -9.999 -99.9 -99.99 -9.99
2019/12/13 05:00 PST    3.26   3.25    2  258    3  54.3  55.4 1023.9 -9.9 -9.999 -99.9 -99.99 -9.99
2019/12/13 05:06 PST    3.21   3.16    2  235    3  54.3  55.4 1023.8 -9.9 -9.999 -99.9 -99.99 -9.99
2019/12/13 05:12 PST    3.17   3.14    2  203    2  54.3  55.4 1023.6 -9.9 -9.999 -99.9 -99.99 -9.99
2019/12/13 05:18 PST    3.14   3.16    3  180    5  54.3  55.4 1023.4 -9.9 -9.999 -99.9 -99.99 -9.99
2019/12/13 05:24 PST    3.11   3.14    2  198    4  54.1  55.4 1023.7 -9.9 -9.999 -99.9 -99.99 -9.99
2019/12/13 05:30 PST    3.08   3.07    2  261    3  54.1  55.4 1024.0 -9.9 -9.999 -99.9 -99.99 -9.99
2019/12/13 05:36 PST    3.06   3.04    1  252    2  54.1  55.4 1024.1 -9.9 -9.999 -99.9 -99.99 -9.99
2019/12/13 05:42 PST    3.04   3.05    2  290    3  54.1  55.4 1024.2 -9.9 -9.999 -99.9 -99.99 -9.99
2019/12/13 05:48 PST    3.03   3.02    1  347    1  54.3  55.4 1024.0 -9.9 -9.999 -99.9 -99.99 -9.99
2019/12/13 05:54 PST    3.02   3.06    0  331    1  54.3  55.4 1023.8 -9.9 -9.999 -99.9 -99.99 -9.99
2019/12/13 06:00 PST    3.01   3.10    1  164    1  54.1  55.4 1023.8 -9.9 -9.999 -99.9 -99.99 -9.99
2019/12/13 06:06 PST    3.01   3.08    2  162    2  54.1  55.4 1023.5 -9.9 -9.999 -99.9 -99.99 -9.99
2019/12/13 06:12 PST    3.02   3.05    1  193    2  54.0  55.4 1023.5 -9.9 -9.999 -99.9 -99.99 -9.99
2019/12/13 06:18 PST    3.03   2.98    2  144    3  54.1  55.4 1023.3 -9.9 -9.999 -99.9 -99.99 -9.99
2019/12/13 06:24 PST    3.05   2.97    2  126    4  54.0  55.4 1023.5 -9.9 -9.999 -99.9 -99.99 -9.99
2019/12/13 06:30 PST    3.07   3.09    2  128    2  54.0  55.4 1023.4 -9.9 -9.999 -99.9 -99.99 -9.99
2019/12/13 06:36 PST    3.09   3.16    2  131    3  54.0  55.4 1023.2 -9.9 -9.999 -99.9 -99.99 -9.99
2019/12/13 06:42 PST    3.12   3.21    1  146    2  54.0  55.4 1023.4 -9.9 -9.999 -99.9 -99.99 -9.99
2019/12/13 06:48 PST    3.16   3.26    2  141    3  54.0  55.4 1023.2 -9.9 -9.999 -99.9 -99.99 -9.99
2019/12/13 06:54 PST    3.20   3.30    3  141    4  54.0  55.4 1023.2 -9.9 -9.999 -99.9 -99.99 -9.99
2019/12/13 07:00 PST    3.25   3.32    2  157    3  54.1  55.4 1023.4 -9.9 -9.999 -99.9 -99.99 -9.99
2019/12/13 07:06 PST    3.30   3.40    2  133    3  54.0  55.4 1023.1 -9.9 -9.999 -99.9 -99.99 -9.99
2019/12/13 07:12 PST    3.35   3.44    3  133    3  54.0  55.4 1023.1 -9.9 -9.999 -99.9 -99.99 -9.99
2019/12/13 07:18 PST    3.41   3.49    2  138    4  54.1  55.4 1023.0 -9.9 -9.999 -99.9 -99.99 -9.99
2019/12/13 07:24 PST    3.48   3.65    3  139    4  54.1  55.4 1023.2 -9.9 -9.999 -99.9 -99.99 -9.99
2019/12/13 07:30 PST    3.55   3.81    2  188    4  54.1  55.4 1023.6 -9.9 -9.999 -99.9 -99.99 -9.99
2019/12/13 07:36 PST    3.62   3.90    3  217    4  54.1  55.4 1023.8 -9.9 -9.999 -99.9 -99.99 -9.99
2019/12/13 07:42 PST    3.70   3.92    3  211    4  54.1  55.4 1023.8 -9.9 -9.999 -99.9 -99.99 -9.99
2019/12/13 07:48 PST    3.79   3.95    2  152    4  54.1  55.4 1023.4 -9.9 -9.999 -99.9 -99.99 -9.99
2019/12/13 07:54 PST    3.87   4.03    3  161    4  54.1  55.4 1023.4 -9.9 -9.999 -99.9 -99.99 -9.99
2019/12/13 08:00 PST    3.96   4.13    3  143    4  54.1  55.2 1023.1 -9.9 -9.999 -99.9 -99.99 -9.99
2019/12/13 08:06 PST    4.06   4.24    4  119    4  54.3  55.2 1023.0 -9.9 -9.999 -99.9 -99.99 -9.99
2019/12/13 08:12 PST    4.16   4.40    4  133    5  54.3  55.2 1023.2 -9.9 -9.999 -99.9 -99.99 -9.99
2019/12/13 08:18 PST    4.26   4.56    3  157    5  54.3  55.2 1023.4 -9.9 -9.999 -99.9 -99.99 -9.99
2019/12/13 08:24 PST    4.36   4.68    2  161    4  54.3  55.2 1023.3 -9.9 -9.999 -99.9 -99.99 -9.99
2019/12/13 08:30 PST    4.47   4.75    2  130    4  54.5  55.2 1023.0 -9.9 -9.999 -99.9 -99.99 -9.99
2019/12/13 08:36 PST    4.58   4.83    4  124    5  54.5  55.2 1023.0 -9.9 -9.999 -99.9 -99.99 -9.99
2019/12/13 08:42 PST    4.69   4.94    3  130    5  54.5  55.2 1023.0 -9.9 -9.999 -99.9 -99.99 -9.99
2019/12/13 08:48 PST    4.80   5.08    3  123    4  54.5  55.2 1023.2 -9.9 -9.999 -99.9 -99.99 -9.99
2019/12/13 08:54 PST    4.91   5.22    3  177    3  54.5  55.2 1023.5 -9.9 -9.999 -99.9 -99.99 -9.99
2019/12/13 09:00 PST    5.03   5.33    4  189    4  54.5  55.2 1023.6 -9.9 -9.999 -99.9 -99.99 -9.99
2019/12/13 09:06 PST    5.14   5.46    4  184    5  54.5  55.2 1023.6 -9.9 -9.999 -99.9 -99.99 -9.99
2019/12/13 09:12 PST    5.25   5.62    4  187    5  54.5  55.2 1023.7 -9.9 -9.999 -99.9 -99.99 -9.99
2019/12/13 09:18 PST    5.37   5.68    3  190    4  54.5  55.2 1023.7 -9.9 -9.999 -99.9 -99.99 -9.99
2019/12/13 09:24 PST    5.48   5.77    3  195    4  54.5  55.2 1023.7 -9.9 -9.999 -99.9 -99.99 -9.99
2019/12/13 09:30 PST    5.59   5.91    3  199    4  54.7  55.2 1023.8 -9.9 -9.999 -99.9 -99.99 -9.99
2019/12/13 09:36 PST    5.70   6.00    3  213    4  54.5  55.2 1024.0 -9.9 -9.999 -99.9 -99.99 -9.99
2019/12/13 09:42 PST    5.81   6.05    2  229    3  54.7  55.2 1024.0 -9.9 -9.999 -99.9 -99.99 -9.99
2019/12/13 09:48 PST    5.92   6.22    2  238    3  54.7  55.2 1024.2 -9.9 -9.999 -99.9 -99.99 -9.99
2019/12/13 09:54 PST    6.02   6.42    3  245    3  54.7  55.2 1024.3 -9.9 -9.999 -99.9 -99.99 -9.99
2019/12/13 10:00 PST    6.12   6.46    3  248    4  54.7  55.2 1024.3 -9.9 -9.999 -99.9 -99.99 -9.99
2019/12/13 10:06 PST    6.22   6.51    4  263    4  54.7  55.2 1024.5 -9.9 -9.999 -99.9 -99.99 -9.99
2019/12/13 10:12 PST    6.31   6.62    3  268    5  54.9  55.2 1024.7 -9.9 -9.999 -99.9 -99.99 -9.99
2019/12/13 10:18 PST    6.40   6.72    4  282    5  54.9  55.2 1024.6 -9.9 -9.999 -99.9 -99.99 -9.99
2019/12/13 10:24 PST    6.49   6.80    4  285    5  54.9  55.4 1024.8 -9.9 -9.999 -99.9 -99.99 -9.99
2019/12/13 10:30 PST    6.57   6.88    3  288    4  54.7  55.4 1024.8 -9.9 -9.999 -99.9 -99.99 -9.99
2019/12/13 10:36 PST    6.65   7.00    3  285    3  54.9  55.4 1024.8 -9.9 -9.999 -99.9 -99.99 -9.99
2019/12/13 10:42 PST    6.72   7.04    4  281    5  54.5  55.4 1024.7 -9.9 -9.999 -99.9 -99.99 -9.99
2019/12/13 10:48 PST    6.79   7.09    3  278    5  54.3  55.4 1024.6 -9.9 -9.999 -99.9 -99.99 -9.99
2019/12/13 10:54 PST    6.85   7.16    5  285    6  54.1  55.4 1024.6 -9.9 -9.999 -99.9 -99.99 -9.99
2019/12/13 11:00 PST    6.90   7.22    4  284    6  54.0  55.4 1024.6 -9.9 -9.999 -99.9 -99.99 -9.99
2019/12/13 11:06 PST    6.96   7.30    6  288    7  53.6  55.4 1024.5 -9.9 -9.999 -99.9 -99.99 -9.99
2019/12/13 11:12 PST    7.00   7.35    5  285    6  53.8  55.4 1024.5 -9.9 -9.999 -99.9 -99.99 -9.99
2019/12/13 11:18 PST    7.04   7.43    3  290    5  53.8  55.4 1024.5 -9.9 -9.999 -99.9 -99.99 -9.99
2019/12/13 11:24 PST    7.07   7.40    1  280    3  53.6  55.4 1024.1 -9.9 -9.999 -99.9 -99.99 -9.99
2019/12/13 11:30 PST    7.10   7.44    4  281    5  53.4  55.4 1024.1 -9.9 -9.999 -99.9 -99.99 -9.99
2019/12/13 11:36 PST    7.12   7.46    4  274    5  53.8  55.4 1024.0 -9.9 -9.999 -99.9 -99.99 -9.99
2019/12/13 11:42 PST    7.13   7.47    3  247    6  53.6  55.4 1023.6 -9.9 -9.999 -99.9 -99.99 -9.99
2019/12/13 11:48 PST    7.14   7.55    4  257    4  53.6  55.4 1023.5 -9.9 -9.999 -99.9 -99.99 -9.99
2019/12/13 11:54 PST    7.14   7.49    3  275    4  54.0  55.4 1023.5 -9.9 -9.999 -99.9 -99.99 -9.99
2019/12/13 12:00 PST    7.13   7.46    4  260    4  53.8  55.4 1023.6 -9.9 -9.999 -99.9 -99.99 -9.99
2019/12/13 12:06 PST    7.12   7.39    3  255    4  54.0  55.4 1023.4 -9.9 -9.999 -99.9 -99.99 -9.99
2019/12/13 12:12 PST    7.10   7.39    2  252    3  54.0  55.4 1023.2 -9.9 -9.999 -99.9 -99.99 -9.99
2019/12/13 12:18 PST    7.07   7.35    1  287    2  54.0  55.4 1023.1 -9.9 -9.999 -99.9 -99.99 -9.99
2019/12/13 12:24 PST    7.03   7.25    1   91    2  54.0  55.4 1022.8 -9.9 -9.999 -99.9 -99.99 -9.99
2019/12/13 12:30 PST    6.99   7.24    3  123    3  54.0  55.4 1022.5 -9.9 -9.999 -99.9 -99.99 -9.99
2019/12/13 12:36 PST    6.94   7.26    3  113    4  54.0  55.4 1022.2 -9.9 -9.999 -99.9 -99.99 -9.99
2019/12/13 12:42 PST    6.88   7.13    3  129    4  54.0  55.4 1022.1 -9.9 -9.999 -99.9 -99.99 -9.99
2019/12/13 12:48 PST    6.81   6.98    5  123    6  54.0  55.4 1022.0 -9.9 -9.999 -99.9 -99.99 -9.99
2019/12/13 12:54 PST    6.74   6.88    4  125    6  54.0  55.4 1021.9 -9.9 -9.999 -99.9 -99.99 -9.99
2019/12/13 13:00 PST    6.66   6.79    4  113    5  54.1  55.4 1021.7 -9.9 -9.999 -99.9 -99.99 -9.99
2019/12/13 13:06 PST    6.57   6.67    5  125    7  54.0  55.4 1021.5 -9.9 -9.999 -99.9 -99.99 -9.99
2019/12/13 13:12 PST    6.47   6.56    6  122    8  54.1  55.4 1021.2 -9.9 -9.999 -99.9 -99.99 -9.99
2019/12/13 13:18 PST    6.37   6.49    8  126   10  54.1  55.4 1020.9 -9.9 -9.999 -99.9 -99.99 -9.99
2019/12/13 13:24 PST    6.26   6.26   11  129   12  54.3  55.4 1020.4 -9.9 -9.999 -99.9 -99.99 -9.99
2019/12/13 13:30 PST    6.14   6.16    8  128   13  54.5  55.4 1020.8 -9.9 -9.999 -99.9 -99.99 -9.99
2019/12/13 13:36 PST    6.01   6.07   10  127   12  54.7  55.4 1020.4 -9.9 -9.999 -99.9 -99.99 -9.99
2019/12/13 13:42 PST    5.88   5.85   11  127   14  54.9  55.4 1020.0 -9.9 -9.999 -99.9 -99.99 -9.99
2019/12/13 13:48 PST    5.74   5.66   12  126   14  54.9  55.4 1019.9 -9.9 -9.999 -99.9 -99.99 -9.99
2019/12/13 13:54 PST    5.59   5.58    9  129   13  55.0  55.4 1020.0 -9.9 -9.999 -99.9 -99.99 -9.99
2019/12/13 14:00 PST    5.44   5.42    8  123   13  55.2  55.6 1020.0 -9.9 -9.999 -99.9 -99.99 -9.99
2019/12/13 14:06 PST    5.28   5.30    4  123    8  55.2  55.6 1020.3 -9.9 -9.999 -99.9 -99.99 -9.99
2019/12/13 14:12 PST    5.12   5.05    5  124    8  55.4  55.6 1020.4 -9.9 -9.999 -99.9 -99.99 -9.99
2019/12/13 14:18 PST    4.95   4.85    7  129    9  55.8  55.6 1020.2 -9.9 -9.999 -99.9 -99.99 -9.99
2019/12/13 14:24 PST    4.77   4.63    9  127   10  55.9  55.6 1020.1 -9.9 -9.999 -99.9 -99.99 -9.99
2019/12/13 14:30 PST    4.60   4.53    5  113    8  55.9  55.6 1020.0 -9.9 -9.999 -99.9 -99.99 -9.99
2019/12/13 14:36 PST    4.41   4.37    5  114    7  56.1  55.6 1020.0 -9.9 -9.999 -99.9 -99.99 -9.99
2019/12/13 14:42 PST    4.23   4.21    4  120    7  56.1  55.6 1020.2 -9.9 -9.999 -99.9 -99.99 -9.99
2019/12/13 14:48 PST    4.04   3.99    4  103    5  56.3  55.6 1020.1 -9.9 -9.999 -99.9 -99.99 -9.99
2019/12/13 14:54 PST    3.85   3.73    5  111    7  56.3  55.6 1019.7 -9.9 -9.999 -99.9 -99.99 -9.99
2019/12/13 15:00 PST    3.66   3.60    1   98    6  56.5  55.6 1020.4 -9.9 -9.999 -99.9 -99.99 -9.99
2019/12/13 15:06 PST    3.46   3.48    2  322    3  56.8  55.8 1020.5 -9.9 -9.999 -99.9 -99.99 -9.99
2019/12/13 15:12 PST    3.27   3.23    2  320    3  57.0  55.8 1020.4 -9.9 -9.999 -99.9 -99.99 -9.99
2019/12/13 15:18 PST    3.07   3.05    2  292    2  57.0  55.8 1020.4 -9.9 -9.999 -99.9 -99.99 -9.99
2019/12/13 15:24 PST    2.88   2.91    2  316    3  57.2  55.8 1020.5 -9.9 -9.999 -99.9 -99.99 -9.99
2019/12/13 15:30 PST    2.68   2.72    2  298    4  57.4  55.8 1020.6 -9.9 -9.999 -99.9 -99.99 -9.99
2019/12/13 15:36 PST    2.49   2.53    2  307    3  57.4  55.8 1020.6 -9.9 -9.999 -99.9 -99.99 -9.99
2019/12/13 15:42 PST    2.30   2.35    3  290    6  56.8  55.8 1020.7 -9.9 -9.999 -99.9 -99.99 -9.99
2019/12/13 15:48 PST    2.11   2.19    2  299    4  56.8  55.8 1020.4 -9.9 -9.999 -99.9 -99.99 -9.99
2019/12/13 15:54 PST    1.93   2.01    2  280    2  56.5  55.8 1020.1 -9.9 -9.999 -99.9 -99.99 -9.99
2019/12/13 16:00 PST    1.74   1.90    1  123    1  56.5  55.8 1019.7 -9.9 -9.999 -99.9 -99.99 -9.99
2019/12/13 16:06 PST    1.56   1.74    1  149    1  56.5  55.8 1019.7 -9.9 -9.999 -99.9 -99.99 -9.99
2019/12/13 16:12 PST    1.39   1.57    1  190    2  56.1  55.8 1019.7 -9.9 -9.999 -99.9 -99.99 -9.99
2019/12/13 16:18 PST    1.22   1.40    2  227    2  56.1  55.8 1019.7 -9.9 -9.999 -99.9 -99.99 -9.99
2019/12/13 16:24 PST    1.05   1.29    3  259    3  55.8  55.8 1019.5 -9.9 -9.999 -99.9 -99.99 -9.99
2019/12/13 16:30 PST    0.89   1.12    3  259    3  55.9  55.8 1019.5 -9.9 -9.999 -99.9 -99.99 -9.99
2019/12/13 16:36 PST    0.74   1.04    4  237    4  55.6  55.8 1019.5 -9.9 -9.999 -99.9 -99.99 -9.99
2019/12/13 16:42 PST    0.59   0.91    3  243    4  55.6  55.8 1019.6 -9.9 -9.999 -99.9 -99.99 -9.99
2019/12/13 16:48 PST    0.44   0.74    4  258    5  55.6  55.8 1019.8 -9.9 -9.999 -99.9 -99.99 -9.99
2019/12/13 16:54 PST    0.31   0.58    4  263    5  55.8  55.8 1020.0 -9.9 -9.999 -99.9 -99.99 -9.99
2019/12/13 17:00 PST    0.18   0.47    4  258    5  55.8  55.8 1019.7 -9.9 -9.999 -99.9 -99.99 -9.99
2019/12/13 17:06 PST    0.05   0.38    3  239    4  55.8  55.8 1019.6 -9.9 -9.999 -99.9 -99.99 -9.99
2019/12/13 17:12 PST   -0.07   0.25    2  248    4  55.8  55.8 1019.5 -9.9 -9.999 -99.9 -99.99 -9.99
2019/12/13 17:18 PST   -0.18   0.13    2  261    3  55.8  55.8 1019.6 -9.9 -9.999 -99.9 -99.99 -9.99
2019/12/13 17:24 PST   -0.28   0.04    2  268    3  55.6  55.8 1019.6 -9.9 -9.999 -99.9 -99.99 -9.99
2019/12/13 17:30 PST   -0.38  -0.09    3  241    3  55.8  55.8 1019.5 -9.9 -9.999 -99.9 -99.99 -9.99
2019/12/13 17:36 PST   -0.47  -0.20    3  230    4  55.8  55.8 1019.6 -9.9 -9.999 -99.9 -99.99 -9.99
2019/12/13 17:42 PST   -0.56  -0.30    3  268    4  56.1  55.8 1019.6 -9.9 -9.999 -99.9 -99.99 -9.99
2019/12/13 17:48 PST   -0.64  -0.32    3  264    5  56.1  55.8 1019.6 -9.9 -9.999 -99.9 -99.99 -9.99
2019/12/13 17:54 PST   -0.71  -0.39    7  269    9  56.1  55.8 1019.7 -9.9 -9.999 -99.9 -99.99 -9.99
2019/12/13 18:00 PST   -0.77  -0.49    7  264   10  55.9  55.8 1019.7 -9.9 -9.999 -99.9 -99.99 -9.99
2019/12/13 18:06 PST   -0.83  -0.58    5  269   10  55.9  55.8 1019.7 -9.9 -9.999 -99.9 -99.99 -9.99
2019/12/13 18:12 PST   -0.88  -0.63    7  264   10  55.8  55.8 1019.6 -9.9 -9.999 -99.9 -99.99 -9.99
2019/12/13 18:18 PST   -0.92  -0.67    7  267   11  55.9  55.8 1019.6 -9.9 -9.999 -99.9 -99.99 -9.99
2019/12/13 18:24 PST   -0.95  -0.79    7  267    9  55.9  55.8 1019.7 -9.9 -9.999 -99.9 -99.99 -9.99
2019/12/13 18:30 PST   -0.98  -0.80    5  265    8  55.9  55.8 1019.7 -9.9 -9.999 -99.9 -99.99 -9.99
2019/12/13 18:36 PST   -1.01  -0.82    4  262    6  55.8  55.8 1019.6 -9.9 -9.999 -99.9 -99.99 -9.99
2019/12/13 18:42 PST   -1.02  -0.82    5  260    7  55.9  55.8 1019.6 -9.9 -9.999 -99.9 -99.99 -9.99
2019/12/13 18:48 PST   -1.03  -0.93    6  260    7  56.1  55.8 1019.6 -9.9 -9.999 -99.9 -99.99 -9.99
2019/12/13 18:54 PST   -1.03  -0.96    6  259    8  56.1  55.8 1019.6 -9.9 -9.999 -99.9 -99.99 -9.99
2019/12/13 19:00 PST   -1.03  -0.96 -999 -999 -999 -99.9  55.8 -999.9 -9.9 -9.999 -99.9 -99.99 -9.99
2019/12/13 19:06 PST   -1.02  -0.90 -999 -999 -999 -99.9  55.8 -999.9 -9.9 -9.999 -99.9 -99.99 -9.99
2019/12/13 19:12 PST   -1.00 -99.99 -999 -999 -999 -99.9 -99.9 -999.9 -9.9 -9.999 -99.9 -99.99 -9.99